<?xml version='1.0' encoding='UTF-8'?><gpx version="1.1" creator="JPX - https://github.com/jenetics/jpx" xmlns="http://www.topografix.com/GPX/1/1"><trk><trkseg><trkpt lat="46.5563003" lon="12.3671469"><ele>1804.9999999999998</ele><time>2026-04-20T16:44:40.892Z</time></trkpt><trkpt lat="46.5562373" lon="12.3671647"><ele>1805.0</ele><time>2026-04-20T16:44:51.879Z</time></trkpt><trkpt lat="46.5561587" lon="12.3671577"><ele>1804.9999999999998</ele><time>2026-04-20T16:44:54.877Z</time></trkpt><trkpt lat="46.5560929" lon="12.3671308"><ele>1804.9999999999998</ele><time>2026-04-20T16:44:56.885Z</time></trkpt><trkpt lat="46.5560683" lon="12.3670248"><ele>1805.0</ele><time>2026-04-20T16:45:00.878Z</time></trkpt><trkpt lat="46.5560245" lon="12.3669531"><ele>1804.9999999999998</ele><time>2026-04-20T16:45:05.877Z</time></trkpt><trkpt lat="46.5559355" lon="12.3669111"><ele>1804.9999999999998</ele><time>2026-04-20T16:45:08.879Z</time></trkpt><trkpt lat="46.5558567" lon="12.3669213"><ele>1805.3333333333333</ele><time>2026-04-20T16:45:10.874Z</time></trkpt><trkpt lat="46.5557457" lon="12.3669728"><ele>1805.6666666666665</ele><time>2026-04-20T16:45:12.881Z</time></trkpt><trkpt lat="46.5556698" lon="12.367008"><ele>1806.0</ele><time>2026-04-20T16:45:14.877Z</time></trkpt><trkpt lat="46.5556027" lon="12.3669943"><ele>1806.3333333333335</ele><time>2026-04-20T16:45:16.873Z</time></trkpt><trkpt lat="46.5555292" lon="12.3669405"><ele>1806.6666666666667</ele><time>2026-04-20T16:45:18.879Z</time></trkpt><trkpt lat="46.5554817" lon="12.3668187"><ele>1807.0</ele><time>2026-04-20T16:45:21.878Z</time></trkpt><trkpt lat="46.5553986" lon="12.3667593"><ele>1804.3333333333335</ele><time>2026-04-20T16:45:24.884Z</time></trkpt><trkpt lat="46.5553336" lon="12.3667544"><ele>1801.6666666666667</ele><time>2026-04-20T16:45:26.877Z</time></trkpt><trkpt lat="46.5552597" lon="12.3667945"><ele>1799.0</ele><time>2026-04-20T16:45:28.889Z</time></trkpt><trkpt lat="46.5551703" lon="12.3668076"><ele>1796.3333333333335</ele><time>2026-04-20T16:45:30.877Z</time></trkpt><trkpt lat="46.5550927" lon="12.3668465"><ele>1793.6666666666667</ele><time>2026-04-20T16:45:32.882Z</time></trkpt><trkpt lat="46.555024" lon="12.3669209"><ele>1791.0</ele><time>2026-04-20T16:45:34.895Z</time></trkpt><trkpt lat="46.5549737" lon="12.3670113"><ele>1791.0</ele><time>2026-04-20T16:45:36.87Z</time></trkpt><trkpt lat="46.554906" lon="12.3671255"><ele>1791.0</ele><time>2026-04-20T16:45:38.884Z</time></trkpt><trkpt lat="46.5548425" lon="12.3672297"><ele>1791.0</ele><time>2026-04-20T16:45:40.893Z</time></trkpt><trkpt lat="46.5547638" lon="12.3673234"><ele>1791.0</ele><time>2026-04-20T16:45:42.873Z</time></trkpt><trkpt lat="46.5546711" lon="12.3674138"><ele>1791.0</ele><time>2026-04-20T16:45:44.873Z</time></trkpt><trkpt lat="46.5545749" lon="12.3674754"><ele>1789.1999999999998</ele><time>2026-04-20T16:45:46.875Z</time></trkpt><trkpt lat="46.5544814" lon="12.3675441"><ele>1787.3999999999999</ele><time>2026-04-20T16:45:48.878Z</time></trkpt><trkpt lat="46.5544055" lon="12.3675996"><ele>1785.6</ele><time>2026-04-20T16:45:50.878Z</time></trkpt><trkpt lat="46.5543623" lon="12.3677152"><ele>1783.8</ele><time>2026-04-20T16:45:52.879Z</time></trkpt><trkpt lat="46.5543265" lon="12.3678427"><ele>1782.0</ele><time>2026-04-20T16:45:54.883Z</time></trkpt><trkpt lat="46.5543025" lon="12.3679896"><ele>1780.6666666666667</ele><time>2026-04-20T16:45:56.876Z</time></trkpt><trkpt lat="46.5543055" lon="12.3681148"><ele>1779.3333333333335</ele><time>2026-04-20T16:45:58.874Z</time></trkpt><trkpt lat="46.5542966" lon="12.3682289"><ele>1778.0</ele><time>2026-04-20T16:46:00.877Z</time></trkpt><trkpt lat="46.5543127" lon="12.3683304"><ele>1776.6666666666667</ele><time>2026-04-20T16:46:02.877Z</time></trkpt><trkpt lat="46.554328" lon="12.3684506"><ele>1775.3333333333335</ele><time>2026-04-20T16:46:05.906Z</time></trkpt><trkpt lat="46.554342" lon="12.3685693"><ele>1774.0</ele><time>2026-04-20T16:46:08.879Z</time></trkpt><trkpt lat="46.554368" lon="12.3686698"><ele>1774.0</ele><time>2026-04-20T16:46:11.879Z</time></trkpt><trkpt lat="46.5544199" lon="12.368781"><ele>1774.0</ele><time>2026-04-20T16:46:14.889Z</time></trkpt><trkpt lat="46.5544773" lon="12.3688574"><ele>1774.0</ele><time>2026-04-20T16:46:16.876Z</time></trkpt><trkpt lat="46.5545428" lon="12.3689438"><ele>1774.0</ele><time>2026-04-20T16:46:18.885Z</time></trkpt><trkpt lat="46.5546244" lon="12.3690124"><ele>1774.0</ele><time>2026-04-20T16:46:20.888Z</time></trkpt><trkpt lat="46.5547118" lon="12.369097"><ele>1774.4</ele><time>2026-04-20T16:46:22.876Z</time></trkpt><trkpt lat="46.5547813" lon="12.3691976"><ele>1774.8000000000002</ele><time>2026-04-20T16:46:24.884Z</time></trkpt><trkpt lat="46.5548538" lon="12.369346"><ele>1775.1999999999998</ele><time>2026-04-20T16:46:26.881Z</time></trkpt><trkpt lat="46.5549195" lon="12.369477"><ele>1775.6</ele><time>2026-04-20T16:46:28.878Z</time></trkpt><trkpt lat="46.5549792" lon="12.3696172"><ele>1776.0</ele><time>2026-04-20T16:46:30.894Z</time></trkpt><trkpt lat="46.5550384" lon="12.3697589"><ele>1771.0</ele><time>2026-04-20T16:46:32.887Z</time></trkpt><trkpt lat="46.5550965" lon="12.3699016"><ele>1766.0</ele><time>2026-04-20T16:46:34.885Z</time></trkpt><trkpt lat="46.5551775" lon="12.3700251"><ele>1761.0</ele><time>2026-04-20T16:46:36.883Z</time></trkpt><trkpt lat="46.5552521" lon="12.3701246"><ele>1756.0</ele><time>2026-04-20T16:46:38.874Z</time></trkpt><trkpt lat="46.5553045" lon="12.3702137"><ele>1751.0</ele><time>2026-04-20T16:46:40.871Z</time></trkpt><trkpt lat="46.5553526" lon="12.3702903"><ele>1753.9999999999998</ele><time>2026-04-20T16:46:43.884Z</time></trkpt><trkpt lat="46.5553872" lon="12.3703787"><ele>1757.0</ele><time>2026-04-20T16:46:47.89Z</time></trkpt><trkpt lat="46.5554489" lon="12.3704738"><ele>1760.0</ele><time>2026-04-20T16:46:50.877Z</time></trkpt><trkpt lat="46.5555133" lon="12.3705612"><ele>1763.0</ele><time>2026-04-20T16:46:52.877Z</time></trkpt><trkpt lat="46.555574" lon="12.370648"><ele>1765.9999999999998</ele><time>2026-04-20T16:46:54.883Z</time></trkpt><trkpt lat="46.5556447" lon="12.3707269"><ele>1769.0</ele><time>2026-04-20T16:46:56.872Z</time></trkpt><trkpt lat="46.5557135" lon="12.3708107"><ele>1763.2857142857142</ele><time>2026-04-20T16:46:58.875Z</time></trkpt><trkpt lat="46.5557648" lon="12.370874"><ele>1757.5714285714287</ele><time>2026-04-20T16:47:00.879Z</time></trkpt><trkpt lat="46.555833" lon="12.370907"><ele>1751.857142857143</ele><time>2026-04-20T16:47:05.879Z</time></trkpt><trkpt lat="46.5559054" lon="12.3709056"><ele>1746.142857142857</ele><time>2026-04-20T16:47:10.883Z</time></trkpt><trkpt lat="46.5559641" lon="12.3709666"><ele>1740.4285714285716</ele><time>2026-04-20T16:47:13.879Z</time></trkpt><trkpt lat="46.5559313" lon="12.3710552"><ele>1734.7142857142858</ele><time>2026-04-20T16:47:16.878Z</time></trkpt><trkpt lat="46.5558578" lon="12.3711155"><ele>1729.0</ele><time>2026-04-20T16:47:18.877Z</time></trkpt><trkpt lat="46.555781" lon="12.3711331"><ele>1729.0</ele><time>2026-04-20T16:47:20.876Z</time></trkpt><trkpt lat="46.5556938" lon="12.3711039"><ele>1729.0</ele><time>2026-04-20T16:47:22.872Z</time></trkpt><trkpt lat="46.555594" lon="12.3710433"><ele>1729.0</ele><time>2026-04-20T16:47:24.881Z</time></trkpt><trkpt lat="46.5555333" lon="12.3710054"><ele>1729.0</ele><time>2026-04-20T16:47:25.895Z</time></trkpt><trkpt lat="46.5554159" lon="12.3709462"><ele>1729.0</ele><time>2026-04-20T16:47:27.875Z</time></trkpt><trkpt lat="46.5553184" lon="12.3708878"><ele>1728.2</ele><time>2026-04-20T16:47:29.876Z</time></trkpt><trkpt lat="46.5552312" lon="12.3708366"><ele>1727.4</ele><time>2026-04-20T16:47:31.9Z</time></trkpt><trkpt lat="46.5551556" lon="12.3707841"><ele>1726.6</ele><time>2026-04-20T16:47:33.882Z</time></trkpt><trkpt lat="46.5550622" lon="12.370738"><ele>1725.8</ele><time>2026-04-20T16:47:35.872Z</time></trkpt><trkpt lat="46.5549563" lon="12.3706952"><ele>1725.0</ele><time>2026-04-20T16:47:37.878Z</time></trkpt><trkpt lat="46.5548431" lon="12.3706304"><ele>1725.0</ele><time>2026-04-20T16:47:39.882Z</time></trkpt><trkpt lat="46.5547287" lon="12.370578"><ele>1725.0</ele><time>2026-04-20T16:47:41.882Z</time></trkpt><trkpt lat="46.5546101" lon="12.3705505"><ele>1725.0</ele><time>2026-04-20T16:47:43.878Z</time></trkpt><trkpt lat="46.5545285" lon="12.370531"><ele>1725.0</ele><time>2026-04-20T16:47:45.88Z</time></trkpt><trkpt lat="46.5544435" lon="12.3704753"><ele>1725.0</ele><time>2026-04-20T16:47:48.871Z</time></trkpt><trkpt lat="46.55437" lon="12.3704272"><ele>1725.8</ele><time>2026-04-20T16:47:50.873Z</time></trkpt><trkpt lat="46.5542615" lon="12.3703856"><ele>1726.6</ele><time>2026-04-20T16:47:52.872Z</time></trkpt><trkpt lat="46.5541444" lon="12.3703638"><ele>1727.4</ele><time>2026-04-20T16:47:54.877Z</time></trkpt><trkpt lat="46.5540815" lon="12.3703579"><ele>1728.2</ele><time>2026-04-20T16:47:55.88Z</time></trkpt><trkpt lat="46.553952" lon="12.3703424"><ele>1729.0</ele><time>2026-04-20T16:47:57.876Z</time></trkpt><trkpt lat="46.5538403" lon="12.3703291"><ele>1729.0</ele><time>2026-04-20T16:47:59.873Z</time></trkpt><trkpt lat="46.5537292" lon="12.3702903"><ele>1729.0</ele><time>2026-04-20T16:48:01.867Z</time></trkpt><trkpt lat="46.5536345" lon="12.370209"><ele>1729.0</ele><time>2026-04-20T16:48:03.883Z</time></trkpt><trkpt lat="46.5535439" lon="12.3700993"><ele>1729.0</ele><time>2026-04-20T16:48:05.872Z</time></trkpt><trkpt lat="46.553442" lon="12.3700093"><ele>1725.2</ele><time>2026-04-20T16:48:07.887Z</time></trkpt><trkpt lat="46.5533804" lon="12.3699704"><ele>1721.4</ele><time>2026-04-20T16:48:08.878Z</time></trkpt><trkpt lat="46.5532641" lon="12.3699206"><ele>1717.6</ele><time>2026-04-20T16:48:10.883Z</time></trkpt><trkpt lat="46.5531606" lon="12.3698575"><ele>1713.8</ele><time>2026-04-20T16:48:12.878Z</time></trkpt><trkpt lat="46.5530499" lon="12.3698053"><ele>1710.0</ele><time>2026-04-20T16:48:14.878Z</time></trkpt><trkpt lat="46.5529445" lon="12.369713"><ele>1712.5</ele><time>2026-04-20T16:48:16.881Z</time></trkpt><trkpt lat="46.5528893" lon="12.3696656"><ele>1715.0</ele><time>2026-04-20T16:48:17.872Z</time></trkpt><trkpt lat="46.5528324" lon="12.369626"><ele>1717.5</ele><time>2026-04-20T16:48:18.889Z</time></trkpt><trkpt lat="46.5527774" lon="12.3695798"><ele>1720.0</ele><time>2026-04-20T16:48:19.883Z</time></trkpt><trkpt lat="46.5527164" lon="12.3695399"><ele>1722.5</ele><time>2026-04-20T16:48:20.878Z</time></trkpt><trkpt lat="46.5526515" lon="12.3695071"><ele>1725.0</ele><time>2026-04-20T16:48:21.878Z</time></trkpt><trkpt lat="46.5525428" lon="12.3694226"><ele>1720.0</ele><time>2026-04-20T16:48:23.897Z</time></trkpt><trkpt lat="46.5524759" lon="12.3693169"><ele>1715.0</ele><time>2026-04-20T16:48:25.886Z</time></trkpt><trkpt lat="46.5524318" lon="12.3691841"><ele>1710.0</ele><time>2026-04-20T16:48:27.883Z</time></trkpt><trkpt lat="46.5523747" lon="12.3690618"><ele>1705.0</ele><time>2026-04-20T16:48:29.887Z</time></trkpt><trkpt lat="46.5523235" lon="12.3689126"><ele>1700.0</ele><time>2026-04-20T16:48:31.879Z</time></trkpt><trkpt lat="46.5522969" lon="12.3688255"><ele>1699.9999999999998</ele><time>2026-04-20T16:48:32.884Z</time></trkpt><trkpt lat="46.5522765" lon="12.36873"><ele>1700.0</ele><time>2026-04-20T16:48:33.884Z</time></trkpt><trkpt lat="46.5522577" lon="12.3686318"><ele>1700.0</ele><time>2026-04-20T16:48:34.884Z</time></trkpt><trkpt lat="46.5522246" lon="12.3684905"><ele>1700.0</ele><time>2026-04-20T16:48:36.878Z</time></trkpt><trkpt lat="46.5522041" lon="12.3683415"><ele>1699.9999999999998</ele><time>2026-04-20T16:48:38.877Z</time></trkpt><trkpt lat="46.5522252" lon="12.3682023"><ele>1700.0</ele><time>2026-04-20T16:48:40.878Z</time></trkpt><trkpt lat="46.5522778" lon="12.3680548"><ele>1700.2</ele><time>2026-04-20T16:48:42.875Z</time></trkpt><trkpt lat="46.5522786" lon="12.3679269"><ele>1700.4</ele><time>2026-04-20T16:48:44.873Z</time></trkpt><trkpt lat="46.5522322" lon="12.3678441"><ele>1700.6</ele><time>2026-04-20T16:48:46.873Z</time></trkpt><trkpt lat="46.5521532" lon="12.3677597"><ele>1700.8</ele><time>2026-04-20T16:48:48.871Z</time></trkpt><trkpt lat="46.5520628" lon="12.3676736"><ele>1701.0</ele><time>2026-04-20T16:48:50.877Z</time></trkpt><trkpt lat="46.5519986" lon="12.367592"><ele>1692.6</ele><time>2026-04-20T16:48:52.882Z</time></trkpt><trkpt lat="46.5519394" lon="12.3674736"><ele>1684.1999999999998</ele><time>2026-04-20T16:48:54.894Z</time></trkpt><trkpt lat="46.5519123" lon="12.3673861"><ele>1675.8000000000002</ele><time>2026-04-20T16:48:56.879Z</time></trkpt><trkpt lat="46.5518805" lon="12.3672625"><ele>1667.4</ele><time>2026-04-20T16:48:59.878Z</time></trkpt><trkpt lat="46.5518211" lon="12.3671096"><ele>1659.0</ele><time>2026-04-20T16:49:01.875Z</time></trkpt><trkpt lat="46.5517652" lon="12.366974"><ele>1658.8333333333333</ele><time>2026-04-20T16:49:03.881Z</time></trkpt><trkpt lat="46.5517045" lon="12.3668674"><ele>1658.6666666666665</ele><time>2026-04-20T16:49:05.883Z</time></trkpt><trkpt lat="46.5516712" lon="12.3667536"><ele>1658.5</ele><time>2026-04-20T16:49:07.884Z</time></trkpt><trkpt lat="46.5516526" lon="12.3666619"><ele>1658.3333333333333</ele><time>2026-04-20T16:49:10.874Z</time></trkpt><trkpt lat="46.5516519" lon="12.3665493"><ele>1658.1666666666665</ele><time>2026-04-20T16:49:17.871Z</time></trkpt><trkpt lat="46.5516608" lon="12.3664439"><ele>1658.0</ele><time>2026-04-20T16:49:19.884Z</time></trkpt><trkpt lat="46.551689" lon="12.3663186"><ele>1658.4</ele><time>2026-04-20T16:49:21.907Z</time></trkpt><trkpt lat="46.5517096" lon="12.366205"><ele>1658.8000000000002</ele><time>2026-04-20T16:49:23.877Z</time></trkpt><trkpt lat="46.5517234" lon="12.3660871"><ele>1659.2</ele><time>2026-04-20T16:49:25.876Z</time></trkpt><trkpt lat="46.5517314" lon="12.3659637"><ele>1659.6</ele><time>2026-04-20T16:49:27.873Z</time></trkpt><trkpt lat="46.5516814" lon="12.3658418"><ele>1660.0</ele><time>2026-04-20T16:49:29.875Z</time></trkpt><trkpt lat="46.551611" lon="12.3657037"><ele>1660.0000000000002</ele><time>2026-04-20T16:49:31.876Z</time></trkpt><trkpt lat="46.5515637" lon="12.3656263"><ele>1660.0</ele><time>2026-04-20T16:49:32.873Z</time></trkpt><trkpt lat="46.5515269" lon="12.3655497"><ele>1660.0</ele><time>2026-04-20T16:49:33.881Z</time></trkpt><trkpt lat="46.5514876" lon="12.3653969"><ele>1660.0</ele><time>2026-04-20T16:49:35.88Z</time></trkpt><trkpt lat="46.5514207" lon="12.3653076"><ele>1660.0000000000002</ele><time>2026-04-20T16:49:37.873Z</time></trkpt><trkpt lat="46.5513413" lon="12.3652177"><ele>1660.0</ele><time>2026-04-20T16:49:39.878Z</time></trkpt><trkpt lat="46.5512897" lon="12.3651088"><ele>1659.6</ele><time>2026-04-20T16:49:41.878Z</time></trkpt><trkpt lat="46.5512445" lon="12.364967"><ele>1659.2</ele><time>2026-04-20T16:49:43.881Z</time></trkpt><trkpt lat="46.5512168" lon="12.3648423"><ele>1658.8000000000002</ele><time>2026-04-20T16:49:45.878Z</time></trkpt><trkpt lat="46.5511741" lon="12.3646995"><ele>1658.4</ele><time>2026-04-20T16:49:47.879Z</time></trkpt><trkpt lat="46.5511219" lon="12.3645687"><ele>1658.0</ele><time>2026-04-20T16:49:49.877Z</time></trkpt><trkpt lat="46.5510969" lon="12.3644277"><ele>1657.0</ele><time>2026-04-20T16:49:51.878Z</time></trkpt><trkpt lat="46.5510872" lon="12.3642585"><ele>1656.0</ele><time>2026-04-20T16:49:53.885Z</time></trkpt><trkpt lat="46.5511135" lon="12.3641286"><ele>1655.0</ele><time>2026-04-20T16:49:55.88Z</time></trkpt><trkpt lat="46.551174" lon="12.3640158"><ele>1654.0</ele><time>2026-04-20T16:49:57.881Z</time></trkpt><trkpt lat="46.5512478" lon="12.3639182"><ele>1653.0</ele><time>2026-04-20T16:49:59.89Z</time></trkpt><trkpt lat="46.5513241" lon="12.3638745"><ele>1651.1666666666667</ele><time>2026-04-20T16:50:01.875Z</time></trkpt><trkpt lat="46.5513712" lon="12.3637709"><ele>1649.3333333333335</ele><time>2026-04-20T16:50:04.894Z</time></trkpt><trkpt lat="46.551335" lon="12.3636677"><ele>1647.5</ele><time>2026-04-20T16:50:07.871Z</time></trkpt><trkpt lat="46.5512755" lon="12.3636167"><ele>1645.6666666666667</ele><time>2026-04-20T16:50:09.88Z</time></trkpt><trkpt lat="46.5511902" lon="12.3635373"><ele>1643.8333333333335</ele><time>2026-04-20T16:50:11.89Z</time></trkpt><trkpt lat="46.551111" lon="12.3634415"><ele>1642.0</ele><time>2026-04-20T16:50:13.875Z</time></trkpt><trkpt lat="46.5510542" lon="12.3633341"><ele>1637.6666666666667</ele><time>2026-04-20T16:50:15.882Z</time></trkpt><trkpt lat="46.5509943" lon="12.3632264"><ele>1633.3333333333335</ele><time>2026-04-20T16:50:17.875Z</time></trkpt><trkpt lat="46.5509266" lon="12.3631402"><ele>1629.0</ele><time>2026-04-20T16:50:19.877Z</time></trkpt><trkpt lat="46.5508591" lon="12.3631561"><ele>1624.6666666666665</ele><time>2026-04-20T16:50:22.869Z</time></trkpt><trkpt lat="46.5508183" lon="12.3632349"><ele>1620.3333333333333</ele><time>2026-04-20T16:50:24.879Z</time></trkpt><trkpt lat="46.5507982" lon="12.3633503"><ele>1616.0</ele><time>2026-04-20T16:50:26.872Z</time></trkpt><trkpt lat="46.5507596" lon="12.3634687"><ele>1616.0</ele><time>2026-04-20T16:50:28.88Z</time></trkpt><trkpt lat="46.5507088" lon="12.3636104"><ele>1616.0</ele><time>2026-04-20T16:50:30.876Z</time></trkpt><trkpt lat="46.5506346" lon="12.3637481"><ele>1616.0</ele><time>2026-04-20T16:50:32.879Z</time></trkpt><trkpt lat="46.5505738" lon="12.3638505"><ele>1616.0</ele><time>2026-04-20T16:50:34.908Z</time></trkpt><trkpt lat="46.5505388" lon="12.363929"><ele>1616.0</ele><time>2026-04-20T16:50:36.874Z</time></trkpt><trkpt lat="46.5504991" lon="12.3640021"><ele>1615.9999999999998</ele><time>2026-04-20T16:50:38.88Z</time></trkpt><trkpt lat="46.5504184" lon="12.3640323"><ele>1616.0</ele><time>2026-04-20T16:50:41.891Z</time></trkpt><trkpt lat="46.5504043" lon="12.3639096"><ele>1616.0</ele><time>2026-04-20T16:50:45.867Z</time></trkpt><trkpt lat="46.550404" lon="12.363787"><ele>1616.0</ele><time>2026-04-20T16:50:47.879Z</time></trkpt><trkpt lat="46.5504007" lon="12.3636821"><ele>1615.9999999999998</ele><time>2026-04-20T16:50:49.873Z</time></trkpt><trkpt lat="46.5503779" lon="12.3635658"><ele>1616.0</ele><time>2026-04-20T16:50:51.874Z</time></trkpt><trkpt lat="46.5503211" lon="12.3634927"><ele>1610.0</ele><time>2026-04-20T16:50:53.879Z</time></trkpt><trkpt lat="46.5502328" lon="12.3634297"><ele>1604.0</ele><time>2026-04-20T16:50:56.878Z</time></trkpt><trkpt lat="46.5501642" lon="12.3634766"><ele>1598.0</ele><time>2026-04-20T16:50:58.883Z</time></trkpt><trkpt lat="46.5500731" lon="12.3635433"><ele>1592.0</ele><time>2026-04-20T16:51:00.876Z</time></trkpt><trkpt lat="46.5500144" lon="12.3635906"><ele>1586.0</ele><time>2026-04-20T16:51:01.874Z</time></trkpt><trkpt lat="46.5499128" lon="12.3637039"><ele>1585.9999999999998</ele><time>2026-04-20T16:51:03.883Z</time></trkpt><trkpt lat="46.5498714" lon="12.363773"><ele>1586.0</ele><time>2026-04-20T16:51:04.875Z</time></trkpt><trkpt lat="46.5497949" lon="12.3638805"><ele>1586.0</ele><time>2026-04-20T16:51:06.879Z</time></trkpt><trkpt lat="46.5497377" lon="12.363968"><ele>1586.0</ele><time>2026-04-20T16:51:08.875Z</time></trkpt><trkpt lat="46.5496797" lon="12.3640126"><ele>1585.9999999999998</ele><time>2026-04-20T16:51:11.883Z</time></trkpt><trkpt lat="46.5496276" lon="12.3639569"><ele>1586.0</ele><time>2026-04-20T16:51:15.885Z</time></trkpt><trkpt lat="46.5496225" lon="12.3638462"><ele>1585.9999999999998</ele><time>2026-04-20T16:51:18.88Z</time></trkpt><trkpt lat="46.5496219" lon="12.3637518"><ele>1586.0</ele><time>2026-04-20T16:51:20.877Z</time></trkpt><trkpt lat="46.5496345" lon="12.3636411"><ele>1586.0</ele><time>2026-04-20T16:51:22.878Z</time></trkpt><trkpt lat="46.5496668" lon="12.3634994"><ele>1586.0</ele><time>2026-04-20T16:51:24.878Z</time></trkpt><trkpt lat="46.5497022" lon="12.3633632"><ele>1585.9999999999998</ele><time>2026-04-20T16:51:26.883Z</time></trkpt><trkpt lat="46.5497385" lon="12.3632471"><ele>1586.0</ele><time>2026-04-20T16:51:28.874Z</time></trkpt><trkpt lat="46.549765" lon="12.3631383"><ele>1586.0</ele><time>2026-04-20T16:51:30.872Z</time></trkpt><trkpt lat="46.5497919" lon="12.363051"><ele>1586.0</ele><time>2026-04-20T16:51:32.877Z</time></trkpt><trkpt lat="46.5497343" lon="12.3630054"><ele>1586.0</ele><time>2026-04-20T16:51:59.872Z</time></trkpt><trkpt lat="46.5496452" lon="12.3629926"><ele>1586.0</ele><time>2026-04-20T16:52:01.891Z</time></trkpt><trkpt lat="46.5495412" lon="12.3629382"><ele>1586.0</ele><time>2026-04-20T16:52:03.877Z</time></trkpt><trkpt lat="46.5494137" lon="12.3629169"><ele>1583.3333333333333</ele><time>2026-04-20T16:52:05.881Z</time></trkpt><trkpt lat="46.549338" lon="12.362911"><ele>1580.6666666666665</ele><time>2026-04-20T16:52:06.878Z</time></trkpt><trkpt lat="46.5492347" lon="12.3628865"><ele>1578.0</ele><time>2026-04-20T16:52:08.868Z</time></trkpt><trkpt lat="46.5491607" lon="12.3628466"><ele>1575.3333333333335</ele><time>2026-04-20T16:52:10.868Z</time></trkpt><trkpt lat="46.5490886" lon="12.362814"><ele>1572.6666666666667</ele><time>2026-04-20T16:52:12.886Z</time></trkpt><trkpt lat="46.5489995" lon="12.3627479"><ele>1570.0</ele><time>2026-04-20T16:52:14.877Z</time></trkpt><trkpt lat="46.5489135" lon="12.3626483"><ele>1570.0000000000002</ele><time>2026-04-20T16:52:16.873Z</time></trkpt><trkpt lat="46.5488516" lon="12.3625785"><ele>1570.0</ele><time>2026-04-20T16:52:18.876Z</time></trkpt><trkpt lat="46.5487646" lon="12.3624987"><ele>1570.0</ele><time>2026-04-20T16:52:20.876Z</time></trkpt><trkpt lat="46.5486972" lon="12.3624509"><ele>1570.0</ele><time>2026-04-20T16:52:21.875Z</time></trkpt><trkpt lat="46.5486327" lon="12.3624007"><ele>1570.0000000000002</ele><time>2026-04-20T16:52:22.875Z</time></trkpt><trkpt lat="46.5485747" lon="12.3623514"><ele>1570.0</ele><time>2026-04-20T16:52:23.891Z</time></trkpt><trkpt lat="46.5485193" lon="12.3622981"><ele>1569.2</ele><time>2026-04-20T16:52:24.881Z</time></trkpt><trkpt lat="46.5484207" lon="12.3622131"><ele>1568.4</ele><time>2026-04-20T16:52:26.883Z</time></trkpt><trkpt lat="46.5483171" lon="12.3621132"><ele>1567.6</ele><time>2026-04-20T16:52:28.879Z</time></trkpt><trkpt lat="46.5482473" lon="12.3620351"><ele>1566.8</ele><time>2026-04-20T16:52:29.875Z</time></trkpt><trkpt lat="46.5481717" lon="12.3619397"><ele>1566.0</ele><time>2026-04-20T16:52:30.873Z</time></trkpt><trkpt lat="46.5480815" lon="12.3618496"><ele>1566.0</ele><time>2026-04-20T16:52:31.889Z</time></trkpt><trkpt lat="46.5480015" lon="12.3617642"><ele>1566.0</ele><time>2026-04-20T16:52:32.875Z</time></trkpt><trkpt lat="46.547931" lon="12.3616851"><ele>1566.0</ele><time>2026-04-20T16:52:33.873Z</time></trkpt><trkpt lat="46.5478569" lon="12.3616078"><ele>1566.0</ele><time>2026-04-20T16:52:34.876Z</time></trkpt><trkpt lat="46.5477827" lon="12.3615169"><ele>1566.0</ele><time>2026-04-20T16:52:35.885Z</time></trkpt><trkpt lat="46.5477016" lon="12.3614242"><ele>1565.6</ele><time>2026-04-20T16:52:36.883Z</time></trkpt><trkpt lat="46.547639" lon="12.3613192"><ele>1565.1999999999998</ele><time>2026-04-20T16:52:37.886Z</time></trkpt><trkpt lat="46.5475699" lon="12.3612061"><ele>1564.8000000000002</ele><time>2026-04-20T16:52:38.878Z</time></trkpt><trkpt lat="46.5475078" lon="12.3611069"><ele>1564.4</ele><time>2026-04-20T16:52:39.868Z</time></trkpt><trkpt lat="46.5474402" lon="12.3610037"><ele>1564.0</ele><time>2026-04-20T16:52:40.878Z</time></trkpt><trkpt lat="46.547385" lon="12.3609045"><ele>1563.9999999999998</ele><time>2026-04-20T16:52:41.874Z</time></trkpt><trkpt lat="46.5473302" lon="12.3608132"><ele>1564.0</ele><time>2026-04-20T16:52:42.888Z</time></trkpt><trkpt lat="46.5472829" lon="12.3607297"><ele>1564.0</ele><time>2026-04-20T16:52:43.875Z</time></trkpt><trkpt lat="46.5472493" lon="12.3606511"><ele>1564.0</ele><time>2026-04-20T16:52:44.873Z</time></trkpt><trkpt lat="46.5472125" lon="12.360565"><ele>1564.0</ele><time>2026-04-20T16:52:45.874Z</time></trkpt><trkpt lat="46.5471751" lon="12.3604818"><ele>1563.9999999999998</ele><time>2026-04-20T16:52:46.882Z</time></trkpt><trkpt lat="46.5471213" lon="12.3603933"><ele>1564.0</ele><time>2026-04-20T16:52:47.878Z</time></trkpt><trkpt lat="46.5470518" lon="12.3603079"><ele>1564.6666666666667</ele><time>2026-04-20T16:52:48.878Z</time></trkpt><trkpt lat="46.5469806" lon="12.3602284"><ele>1565.3333333333335</ele><time>2026-04-20T16:52:49.882Z</time></trkpt><trkpt lat="46.5469139" lon="12.360156"><ele>1566.0</ele><time>2026-04-20T16:52:50.871Z</time></trkpt><trkpt lat="46.5468495" lon="12.3600874"><ele>1566.6666666666665</ele><time>2026-04-20T16:52:51.901Z</time></trkpt><trkpt lat="46.5467857" lon="12.3600252"><ele>1567.3333333333333</ele><time>2026-04-20T16:52:52.877Z</time></trkpt><trkpt lat="46.5467115" lon="12.359955"><ele>1568.0</ele><time>2026-04-20T16:52:53.88Z</time></trkpt><trkpt lat="46.5466357" lon="12.359883"><ele>1568.0</ele><time>2026-04-20T16:52:54.881Z</time></trkpt><trkpt lat="46.5465704" lon="12.3598026"><ele>1568.0</ele><time>2026-04-20T16:52:55.888Z</time></trkpt><trkpt lat="46.5465062" lon="12.3597017"><ele>1568.0</ele><time>2026-04-20T16:52:56.89Z</time></trkpt><trkpt lat="46.5464399" lon="12.3596124"><ele>1568.0</ele><time>2026-04-20T16:52:57.88Z</time></trkpt><trkpt lat="46.5463828" lon="12.3595118"><ele>1568.0</ele><time>2026-04-20T16:52:58.873Z</time></trkpt><trkpt lat="46.5463232" lon="12.3594068"><ele>1569.4999999999998</ele><time>2026-04-20T16:52:59.874Z</time></trkpt><trkpt lat="46.5462685" lon="12.3593125"><ele>1571.0</ele><time>2026-04-20T16:53:00.874Z</time></trkpt><trkpt lat="46.5462172" lon="12.3592202"><ele>1572.5</ele><time>2026-04-20T16:53:01.89Z</time></trkpt><trkpt lat="46.5461699" lon="12.3591109"><ele>1574.0</ele><time>2026-04-20T16:53:02.885Z</time></trkpt><trkpt lat="46.5461291" lon="12.3590161"><ele>1575.4999999999998</ele><time>2026-04-20T16:53:03.878Z</time></trkpt><trkpt lat="46.5460982" lon="12.3588633"><ele>1577.0</ele><time>2026-04-20T16:53:05.88Z</time></trkpt><trkpt lat="46.5460714" lon="12.3587612"><ele>1577.0</ele><time>2026-04-20T16:53:07.878Z</time></trkpt><trkpt lat="46.5459972" lon="12.3587198"><ele>1577.0</ele><time>2026-04-20T16:53:09.878Z</time></trkpt><trkpt lat="46.5459002" lon="12.3587489"><ele>1577.0</ele><time>2026-04-20T16:53:11.885Z</time></trkpt><trkpt lat="46.5457857" lon="12.3588271"><ele>1577.0</ele><time>2026-04-20T16:53:13.882Z</time></trkpt><trkpt lat="46.545738" lon="12.3589166"><ele>1577.0</ele><time>2026-04-20T16:53:14.883Z</time></trkpt><trkpt lat="46.5456909" lon="12.3590142"><ele>1576.9999999999998</ele><time>2026-04-20T16:53:15.883Z</time></trkpt><trkpt lat="46.5456502" lon="12.3591014"><ele>1577.0</ele><time>2026-04-20T16:53:16.883Z</time></trkpt><trkpt lat="46.5456055" lon="12.3592043"><ele>1577.0</ele><time>2026-04-20T16:53:17.889Z</time></trkpt><trkpt lat="46.5455545" lon="12.3592896"><ele>1577.0</ele><time>2026-04-20T16:53:18.879Z</time></trkpt><trkpt lat="46.5454802" lon="12.3593632"><ele>1576.9999999999998</ele><time>2026-04-20T16:53:20.876Z</time></trkpt><trkpt lat="46.5454095" lon="12.3593434"><ele>1577.0</ele><time>2026-04-20T16:53:22.877Z</time></trkpt><trkpt lat="46.5453358" lon="12.3592571"><ele>1575.8333333333333</ele><time>2026-04-20T16:53:24.868Z</time></trkpt><trkpt lat="46.5452617" lon="12.3591258"><ele>1574.6666666666665</ele><time>2026-04-20T16:53:26.884Z</time></trkpt><trkpt lat="46.5452213" lon="12.3590306"><ele>1573.5</ele><time>2026-04-20T16:53:27.874Z</time></trkpt><trkpt lat="46.5451824" lon="12.3589409"><ele>1572.3333333333335</ele><time>2026-04-20T16:53:28.877Z</time></trkpt><trkpt lat="46.5451354" lon="12.3588546"><ele>1571.1666666666667</ele><time>2026-04-20T16:53:29.881Z</time></trkpt><trkpt lat="46.5450904" lon="12.3587618"><ele>1570.0</ele><time>2026-04-20T16:53:30.885Z</time></trkpt><trkpt lat="46.5450541" lon="12.358681"><ele>1570.0</ele><time>2026-04-20T16:53:31.873Z</time></trkpt><trkpt lat="46.5450202" lon="12.3585971"><ele>1570.0</ele><time>2026-04-20T16:53:32.899Z</time></trkpt><trkpt lat="46.5449813" lon="12.3585235"><ele>1570.0</ele><time>2026-04-20T16:53:33.873Z</time></trkpt><trkpt lat="46.544943" lon="12.3584485"><ele>1570.0</ele><time>2026-04-20T16:53:34.876Z</time></trkpt><trkpt lat="46.544864" lon="12.3583039"><ele>1570.0</ele><time>2026-04-20T16:53:36.884Z</time></trkpt><trkpt lat="46.5447861" lon="12.3581537"><ele>1570.0000000000002</ele><time>2026-04-20T16:53:38.894Z</time></trkpt><trkpt lat="46.5447455" lon="12.3580738"><ele>1570.0</ele><time>2026-04-20T16:53:39.882Z</time></trkpt><trkpt lat="46.5446983" lon="12.3579917"><ele>1570.0</ele><time>2026-04-20T16:53:40.884Z</time></trkpt><trkpt lat="46.5446589" lon="12.3579021"><ele>1570.0</ele><time>2026-04-20T16:53:41.874Z</time></trkpt><trkpt lat="46.5446222" lon="12.3578127"><ele>1570.0000000000002</ele><time>2026-04-20T16:53:42.872Z</time></trkpt><trkpt lat="46.5445915" lon="12.357731"><ele>1570.0</ele><time>2026-04-20T16:53:43.876Z</time></trkpt><trkpt lat="46.544548" lon="12.3575873"><ele>1564.0</ele><time>2026-04-20T16:53:45.879Z</time></trkpt><trkpt lat="46.5445096" lon="12.3574682"><ele>1558.0</ele><time>2026-04-20T16:53:47.878Z</time></trkpt><trkpt lat="46.5444699" lon="12.3573287"><ele>1552.0</ele><time>2026-04-20T16:53:49.881Z</time></trkpt><trkpt lat="46.5444367" lon="12.3571934"><ele>1546.0</ele><time>2026-04-20T16:53:51.881Z</time></trkpt><trkpt lat="46.5443749" lon="12.3570406"><ele>1540.0</ele><time>2026-04-20T16:53:53.876Z</time></trkpt><trkpt lat="46.5443009" lon="12.3569101"><ele>1539.8</ele><time>2026-04-20T16:53:55.875Z</time></trkpt><trkpt lat="46.5442278" lon="12.3568027"><ele>1539.6</ele><time>2026-04-20T16:53:57.879Z</time></trkpt><trkpt lat="46.5441694" lon="12.3567361"><ele>1539.4</ele><time>2026-04-20T16:53:59.873Z</time></trkpt><trkpt lat="46.5440987" lon="12.3567882"><ele>1539.2</ele><time>2026-04-20T16:54:03.887Z</time></trkpt><trkpt lat="46.5440333" lon="12.3569068"><ele>1539.0</ele><time>2026-04-20T16:54:06.875Z</time></trkpt><trkpt lat="46.5439735" lon="12.3570045"><ele>1539.0</ele><time>2026-04-20T16:54:09.871Z</time></trkpt><trkpt lat="46.5439121" lon="12.3571509"><ele>1539.0</ele><time>2026-04-20T16:54:11.871Z</time></trkpt><trkpt lat="46.5438781" lon="12.3572543"><ele>1539.0</ele><time>2026-04-20T16:54:13.878Z</time></trkpt><trkpt lat="46.5438361" lon="12.3573727"><ele>1539.0</ele><time>2026-04-20T16:54:15.885Z</time></trkpt><trkpt lat="46.5437782" lon="12.3575023"><ele>1539.0</ele><time>2026-04-20T16:54:16.883Z</time></trkpt><trkpt lat="46.5437315" lon="12.3576337"><ele>1534.0</ele><time>2026-04-20T16:54:17.883Z</time></trkpt><trkpt lat="46.5437057" lon="12.357733"><ele>1529.0</ele><time>2026-04-20T16:54:18.873Z</time></trkpt><trkpt lat="46.5436844" lon="12.357894"><ele>1524.0</ele><time>2026-04-20T16:54:20.881Z</time></trkpt><trkpt lat="46.5436408" lon="12.3579619"><ele>1519.0</ele><time>2026-04-20T16:54:24.888Z</time></trkpt><trkpt lat="46.5435828" lon="12.3579003"><ele>1514.0</ele><time>2026-04-20T16:54:28.869Z</time></trkpt><trkpt lat="46.5435482" lon="12.3577646"><ele>1509.0</ele><time>2026-04-20T16:54:31.876Z</time></trkpt><trkpt lat="46.5435076" lon="12.3576214"><ele>1509.0</ele><time>2026-04-20T16:54:33.871Z</time></trkpt><trkpt lat="46.5434841" lon="12.3575343"><ele>1509.0</ele><time>2026-04-20T16:54:34.875Z</time></trkpt><trkpt lat="46.5434377" lon="12.3573921"><ele>1509.0</ele><time>2026-04-20T16:54:36.893Z</time></trkpt><trkpt lat="46.5434057" lon="12.3572579"><ele>1509.0</ele><time>2026-04-20T16:54:38.873Z</time></trkpt><trkpt lat="46.5433703" lon="12.3571119"><ele>1509.0</ele><time>2026-04-20T16:54:40.87Z</time></trkpt><trkpt lat="46.5432963" lon="12.3570619"><ele>1509.0</ele><time>2026-04-20T16:54:43.877Z</time></trkpt><trkpt lat="46.5432183" lon="12.3571224"><ele>1509.0</ele><time>2026-04-20T16:54:46.879Z</time></trkpt><trkpt lat="46.5431521" lon="12.3572659"><ele>1509.0</ele><time>2026-04-20T16:54:48.873Z</time></trkpt><trkpt lat="46.5431093" lon="12.3573518"><ele>1509.0</ele><time>2026-04-20T16:54:49.864Z</time></trkpt><trkpt lat="46.5430785" lon="12.3574443"><ele>1509.0</ele><time>2026-04-20T16:54:50.872Z</time></trkpt><trkpt lat="46.5430577" lon="12.3575345"><ele>1509.0</ele><time>2026-04-20T16:54:51.878Z</time></trkpt><trkpt lat="46.5430274" lon="12.3576291"><ele>1509.0</ele><time>2026-04-20T16:54:52.874Z</time></trkpt><trkpt lat="46.5429929" lon="12.3577154"><ele>1509.0</ele><time>2026-04-20T16:54:53.887Z</time></trkpt><trkpt lat="46.5429446" lon="12.3578972"><ele>1509.0</ele><time>2026-04-20T16:54:55.874Z</time></trkpt><trkpt lat="46.5429208" lon="12.3579899"><ele>1509.0</ele><time>2026-04-20T16:54:56.871Z</time></trkpt><trkpt lat="46.5429016" lon="12.3581565"><ele>1509.0</ele><time>2026-04-20T16:54:58.888Z</time></trkpt><trkpt lat="46.5429066" lon="12.3582969"><ele>1507.3333333333333</ele><time>2026-04-20T16:55:00.896Z</time></trkpt><trkpt lat="46.5429263" lon="12.3584318"><ele>1505.6666666666667</ele><time>2026-04-20T16:55:02.87Z</time></trkpt><trkpt lat="46.5429524" lon="12.3585234"><ele>1504.0</ele><time>2026-04-20T16:55:04.873Z</time></trkpt><trkpt lat="46.54292" lon="12.3586059"><ele>1502.3333333333335</ele><time>2026-04-20T16:55:08.877Z</time></trkpt><trkpt lat="46.5428412" lon="12.3585549"><ele>1500.6666666666667</ele><time>2026-04-20T16:55:12.877Z</time></trkpt><trkpt lat="46.5427614" lon="12.3584808"><ele>1499.0</ele><time>2026-04-20T16:55:15.877Z</time></trkpt><trkpt lat="46.5426817" lon="12.3583901"><ele>1495.0</ele><time>2026-04-20T16:55:17.887Z</time></trkpt><trkpt lat="46.5426396" lon="12.3583073"><ele>1491.0</ele><time>2026-04-20T16:55:18.885Z</time></trkpt><trkpt lat="46.542592" lon="12.3582159"><ele>1487.0</ele><time>2026-04-20T16:55:19.894Z</time></trkpt><trkpt lat="46.5425414" lon="12.358134"><ele>1483.0</ele><time>2026-04-20T16:55:20.883Z</time></trkpt><trkpt lat="46.542482" lon="12.3580616"><ele>1479.0</ele><time>2026-04-20T16:55:21.877Z</time></trkpt><trkpt lat="46.5424341" lon="12.3579826"><ele>1475.0</ele><time>2026-04-20T16:55:22.878Z</time></trkpt><trkpt lat="46.5423883" lon="12.3579047"><ele>1471.0</ele><time>2026-04-20T16:55:23.873Z</time></trkpt><trkpt lat="46.5423235" lon="12.3577586"><ele>1471.0</ele><time>2026-04-20T16:55:25.872Z</time></trkpt><trkpt lat="46.5422874" lon="12.3575962"><ele>1471.0</ele><time>2026-04-20T16:55:27.882Z</time></trkpt><trkpt lat="46.5422665" lon="12.35745"><ele>1471.0</ele><time>2026-04-20T16:55:29.881Z</time></trkpt><trkpt lat="46.5422455" lon="12.3573046"><ele>1471.0</ele><time>2026-04-20T16:55:31.876Z</time></trkpt><trkpt lat="46.5422569" lon="12.3571693"><ele>1471.0</ele><time>2026-04-20T16:55:33.878Z</time></trkpt><trkpt lat="46.5422857" lon="12.3570518"><ele>1468.1999999999998</ele><time>2026-04-20T16:55:35.874Z</time></trkpt><trkpt lat="46.5423152" lon="12.3569425"><ele>1465.3999999999999</ele><time>2026-04-20T16:55:37.881Z</time></trkpt><trkpt lat="46.5423228" lon="12.3568133"><ele>1462.6</ele><time>2026-04-20T16:55:39.887Z</time></trkpt><trkpt lat="46.5423346" lon="12.3566863"><ele>1459.8</ele><time>2026-04-20T16:55:41.869Z</time></trkpt><trkpt lat="46.5423678" lon="12.3565581"><ele>1457.0</ele><time>2026-04-20T16:55:43.874Z</time></trkpt><trkpt lat="46.5424059" lon="12.356396"><ele>1452.8</ele><time>2026-04-20T16:55:45.874Z</time></trkpt><trkpt lat="46.5424578" lon="12.3562484"><ele>1448.6</ele><time>2026-04-20T16:55:47.873Z</time></trkpt><trkpt lat="46.5425193" lon="12.356148"><ele>1444.3999999999999</ele><time>2026-04-20T16:55:49.873Z</time></trkpt><trkpt lat="46.5426093" lon="12.3560532"><ele>1440.1999999999998</ele><time>2026-04-20T16:55:51.882Z</time></trkpt><trkpt lat="46.5427016" lon="12.3559745"><ele>1436.0</ele><time>2026-04-20T16:55:53.871Z</time></trkpt><trkpt lat="46.5427551" lon="12.3559144"><ele>1436.0</ele><time>2026-04-20T16:55:55.877Z</time></trkpt><trkpt lat="46.542844" lon="12.3558555"><ele>1436.0</ele><time>2026-04-20T16:56:06.871Z</time></trkpt><trkpt lat="46.5429243" lon="12.3557412"><ele>1436.0</ele><time>2026-04-20T16:56:08.886Z</time></trkpt><trkpt lat="46.542959" lon="12.3556616"><ele>1436.0</ele><time>2026-04-20T16:56:09.867Z</time></trkpt><trkpt lat="46.5429758" lon="12.3554988"><ele>1436.0</ele><time>2026-04-20T16:56:11.87Z</time></trkpt><trkpt lat="46.5429799" lon="12.3553335"><ele>1438.4285714285716</ele><time>2026-04-20T16:56:13.871Z</time></trkpt><trkpt lat="46.5429814" lon="12.3552371"><ele>1440.857142857143</ele><time>2026-04-20T16:56:14.879Z</time></trkpt><trkpt lat="46.5429867" lon="12.3551258"><ele>1443.2857142857142</ele><time>2026-04-20T16:56:15.88Z</time></trkpt><trkpt lat="46.5429922" lon="12.3550104"><ele>1445.7142857142858</ele><time>2026-04-20T16:56:16.874Z</time></trkpt><trkpt lat="46.5429885" lon="12.354903"><ele>1448.142857142857</ele><time>2026-04-20T16:56:17.871Z</time></trkpt><trkpt lat="46.5429759" lon="12.3548072"><ele>1450.5714285714287</ele><time>2026-04-20T16:56:18.874Z</time></trkpt><trkpt lat="46.5429473" lon="12.3547082"><ele>1453.0</ele><time>2026-04-20T16:56:19.872Z</time></trkpt><trkpt lat="46.5429107" lon="12.3546092"><ele>1446.6666666666665</ele><time>2026-04-20T16:56:20.878Z</time></trkpt><trkpt lat="46.5428793" lon="12.3545189"><ele>1440.3333333333333</ele><time>2026-04-20T16:56:21.885Z</time></trkpt><trkpt lat="46.542849" lon="12.3544333"><ele>1434.0</ele><time>2026-04-20T16:56:22.872Z</time></trkpt><trkpt lat="46.5428296" lon="12.3543457"><ele>1427.6666666666667</ele><time>2026-04-20T16:56:23.887Z</time></trkpt><trkpt lat="46.5428025" lon="12.3541762"><ele>1421.3333333333335</ele><time>2026-04-20T16:56:25.871Z</time></trkpt><trkpt lat="46.5428045" lon="12.3540152"><ele>1415.0</ele><time>2026-04-20T16:56:27.872Z</time></trkpt><trkpt lat="46.5428483" lon="12.3539216"><ele>1418.5</ele><time>2026-04-20T16:56:29.884Z</time></trkpt><trkpt lat="46.5429058" lon="12.3538448"><ele>1422.0</ele><time>2026-04-20T16:56:32.875Z</time></trkpt><trkpt lat="46.5429263" lon="12.3537301"><ele>1425.5</ele><time>2026-04-20T16:57:29.876Z</time></trkpt><trkpt lat="46.5429432" lon="12.353591"><ele>1429.0</ele><time>2026-04-20T16:57:31.884Z</time></trkpt><trkpt lat="46.5429598" lon="12.3534805"><ele>1432.5</ele><time>2026-04-20T16:57:33.867Z</time></trkpt><trkpt lat="46.542982" lon="12.353377"><ele>1436.0</ele><time>2026-04-20T16:57:35.877Z</time></trkpt><trkpt lat="46.543024" lon="12.3532564"><ele>1436.0</ele><time>2026-04-20T16:57:37.871Z</time></trkpt><trkpt lat="46.5430868" lon="12.3531411"><ele>1436.0</ele><time>2026-04-20T16:57:39.878Z</time></trkpt><trkpt lat="46.5431406" lon="12.3530096"><ele>1436.0</ele><time>2026-04-20T16:57:41.875Z</time></trkpt><trkpt lat="46.5431947" lon="12.3529035"><ele>1436.0</ele><time>2026-04-20T16:57:43.874Z</time></trkpt><trkpt lat="46.5432313" lon="12.3528042"><ele>1436.0</ele><time>2026-04-20T16:57:45.878Z</time></trkpt><trkpt lat="46.5432612" lon="12.3527035"><ele>1432.0</ele><time>2026-04-20T16:57:47.88Z</time></trkpt><trkpt lat="46.543281" lon="12.352611"><ele>1428.0</ele><time>2026-04-20T16:57:49.885Z</time></trkpt><trkpt lat="46.5433424" lon="12.3525299"><ele>1424.0</ele><time>2026-04-20T16:57:52.871Z</time></trkpt><trkpt lat="46.5434334" lon="12.352484"><ele>1420.0</ele><time>2026-04-20T16:57:55.88Z</time></trkpt><trkpt lat="46.5434901" lon="12.3524402"><ele>1416.0</ele><time>2026-04-20T16:57:57.876Z</time></trkpt><trkpt lat="46.5435357" lon="12.352343"><ele>1412.0</ele><time>2026-04-20T16:58:00.888Z</time></trkpt><trkpt lat="46.5435148" lon="12.3522405"><ele>1412.0</ele><time>2026-04-20T16:58:03.871Z</time></trkpt><trkpt lat="46.5434336" lon="12.3522184"><ele>1412.0</ele><time>2026-04-20T16:58:06.875Z</time></trkpt><trkpt lat="46.5433789" lon="12.3521397"><ele>1412.0</ele><time>2026-04-20T16:58:08.877Z</time></trkpt><trkpt lat="46.5433153" lon="12.3520918"><ele>1412.0</ele><time>2026-04-20T16:58:10.87Z</time></trkpt><trkpt lat="46.5432449" lon="12.3520604"><ele>1412.0</ele><time>2026-04-20T16:58:12.873Z</time></trkpt><trkpt lat="46.5431715" lon="12.3520359"><ele>1412.0</ele><time>2026-04-20T16:58:14.893Z</time></trkpt><trkpt lat="46.5431072" lon="12.3520772"><ele>1412.0</ele><time>2026-04-20T16:58:16.875Z</time></trkpt><trkpt lat="46.543045" lon="12.3521669"><ele>1412.0</ele><time>2026-04-20T16:58:18.883Z</time></trkpt><trkpt lat="46.5429774" lon="12.3522414"><ele>1412.0</ele><time>2026-04-20T16:58:20.876Z</time></trkpt><trkpt lat="46.5428832" lon="12.352326"><ele>1412.0</ele><time>2026-04-20T16:58:22.882Z</time></trkpt><trkpt lat="46.5428137" lon="12.3523768"><ele>1412.0</ele><time>2026-04-20T16:58:24.888Z</time></trkpt><trkpt lat="46.5427181" lon="12.3523917"><ele>1407.8333333333335</ele><time>2026-04-20T16:58:27.881Z</time></trkpt><trkpt lat="46.5426569" lon="12.3523441"><ele>1403.6666666666667</ele><time>2026-04-20T16:58:29.874Z</time></trkpt><trkpt lat="46.5426215" lon="12.3522681"><ele>1399.5</ele><time>2026-04-20T16:58:31.882Z</time></trkpt><trkpt lat="46.5425865" lon="12.3521652"><ele>1395.3333333333333</ele><time>2026-04-20T16:58:33.875Z</time></trkpt><trkpt lat="46.5425087" lon="12.3521134"><ele>1391.1666666666665</ele><time>2026-04-20T16:58:36.888Z</time></trkpt><trkpt lat="46.542437" lon="12.352129"><ele>1387.0</ele><time>2026-04-20T16:58:38.871Z</time></trkpt><trkpt lat="46.5423349" lon="12.3521571"><ele>1387.0</ele><time>2026-04-20T16:58:40.873Z</time></trkpt><trkpt lat="46.542249" lon="12.3521942"><ele>1387.0</ele><time>2026-04-20T16:58:42.881Z</time></trkpt><trkpt lat="46.5421728" lon="12.3522701"><ele>1387.0</ele><time>2026-04-20T16:58:44.878Z</time></trkpt><trkpt lat="46.542087" lon="12.3523661"><ele>1387.0</ele><time>2026-04-20T16:58:46.883Z</time></trkpt><trkpt lat="46.5420168" lon="12.3524797"><ele>1387.0</ele><time>2026-04-20T16:58:48.881Z</time></trkpt><trkpt lat="46.5419421" lon="12.352585"><ele>1381.6</ele><time>2026-04-20T16:58:50.891Z</time></trkpt><trkpt lat="46.5418733" lon="12.3526848"><ele>1376.1999999999998</ele><time>2026-04-20T16:58:52.875Z</time></trkpt><trkpt lat="46.5418005" lon="12.3527701"><ele>1370.8</ele><time>2026-04-20T16:58:54.877Z</time></trkpt><trkpt lat="46.5417391" lon="12.3528248"><ele>1365.4</ele><time>2026-04-20T16:58:56.877Z</time></trkpt><trkpt lat="46.5416636" lon="12.3529023"><ele>1360.0</ele><time>2026-04-20T16:58:58.872Z</time></trkpt><trkpt lat="46.5415933" lon="12.3530248"><ele>1361.6</ele><time>2026-04-20T16:59:00.882Z</time></trkpt><trkpt lat="46.5415193" lon="12.3531439"><ele>1363.2</ele><time>2026-04-20T16:59:02.882Z</time></trkpt><trkpt lat="46.5414577" lon="12.3532658"><ele>1364.8000000000002</ele><time>2026-04-20T16:59:04.885Z</time></trkpt><trkpt lat="46.5413947" lon="12.3534235"><ele>1366.4</ele><time>2026-04-20T16:59:06.877Z</time></trkpt><trkpt lat="46.541354" lon="12.3535026"><ele>1368.0</ele><time>2026-04-20T16:59:07.881Z</time></trkpt><trkpt lat="46.541305" lon="12.3536282"><ele>1368.0</ele><time>2026-04-20T16:59:09.877Z</time></trkpt><trkpt lat="46.5412392" lon="12.3536911"><ele>1368.0</ele><time>2026-04-20T16:59:11.877Z</time></trkpt><trkpt lat="46.5411611" lon="12.3537241"><ele>1368.0</ele><time>2026-04-20T16:59:13.872Z</time></trkpt><trkpt lat="46.5411057" lon="12.3537834"><ele>1368.0</ele><time>2026-04-20T16:59:15.878Z</time></trkpt><trkpt lat="46.5410345" lon="12.3538533"><ele>1368.0</ele><time>2026-04-20T16:59:17.881Z</time></trkpt><trkpt lat="46.5409476" lon="12.3539433"><ele>1368.0</ele><time>2026-04-20T16:59:19.884Z</time></trkpt><trkpt lat="46.5408499" lon="12.3540332"><ele>1361.8000000000002</ele><time>2026-04-20T16:59:21.89Z</time></trkpt><trkpt lat="46.5407547" lon="12.3540859"><ele>1355.6</ele><time>2026-04-20T16:59:23.884Z</time></trkpt><trkpt lat="46.5406661" lon="12.3541593"><ele>1349.4</ele><time>2026-04-20T16:59:25.875Z</time></trkpt><trkpt lat="46.540595" lon="12.354231"><ele>1343.1999999999998</ele><time>2026-04-20T16:59:27.89Z</time></trkpt><trkpt lat="46.5405266" lon="12.3542947"><ele>1337.0</ele><time>2026-04-20T16:59:29.875Z</time></trkpt><trkpt lat="46.5404607" lon="12.354375"><ele>1337.0</ele><time>2026-04-20T16:59:31.876Z</time></trkpt><trkpt lat="46.5403927" lon="12.3544238"><ele>1337.0</ele><time>2026-04-20T16:59:33.876Z</time></trkpt><trkpt lat="46.5403003" lon="12.354425"><ele>1337.0</ele><time>2026-04-20T16:59:36.886Z</time></trkpt><trkpt lat="46.54021" lon="12.3544168"><ele>1337.0</ele><time>2026-04-20T16:59:38.873Z</time></trkpt><trkpt lat="46.5400882" lon="12.3544018"><ele>1337.0</ele><time>2026-04-20T16:59:40.877Z</time></trkpt><trkpt lat="46.5399795" lon="12.3544038"><ele>1333.3333333333335</ele><time>2026-04-20T16:59:42.878Z</time></trkpt><trkpt lat="46.5398814" lon="12.3544092"><ele>1329.6666666666667</ele><time>2026-04-20T16:59:44.879Z</time></trkpt><trkpt lat="46.5398128" lon="12.3544583"><ele>1326.0</ele><time>2026-04-20T16:59:46.875Z</time></trkpt><trkpt lat="46.5397537" lon="12.3545189"><ele>1322.3333333333333</ele><time>2026-04-20T16:59:49.878Z</time></trkpt><trkpt lat="46.5397373" lon="12.3546239"><ele>1318.6666666666665</ele><time>2026-04-20T16:59:52.871Z</time></trkpt><trkpt lat="46.5397406" lon="12.3547764"><ele>1315.0</ele><time>2026-04-20T16:59:55.874Z</time></trkpt><trkpt lat="46.5397508" lon="12.3548695"><ele>1314.1666666666665</ele><time>2026-04-20T16:59:56.877Z</time></trkpt><trkpt lat="46.5397483" lon="12.3549824"><ele>1313.3333333333333</ele><time>2026-04-20T16:59:57.874Z</time></trkpt><trkpt lat="46.5397467" lon="12.3550935"><ele>1312.5</ele><time>2026-04-20T16:59:58.891Z</time></trkpt><trkpt lat="46.5397463" lon="12.355198"><ele>1311.6666666666667</ele><time>2026-04-20T16:59:59.876Z</time></trkpt><trkpt lat="46.5397524" lon="12.3553054"><ele>1310.8333333333335</ele><time>2026-04-20T17:00:00.883Z</time></trkpt><trkpt lat="46.5397565" lon="12.3554145"><ele>1310.0</ele><time>2026-04-20T17:00:01.878Z</time></trkpt><trkpt lat="46.539762" lon="12.3555277"><ele>1308.6666666666667</ele><time>2026-04-20T17:00:02.882Z</time></trkpt><trkpt lat="46.5397699" lon="12.3556381"><ele>1307.3333333333335</ele><time>2026-04-20T17:00:03.876Z</time></trkpt><trkpt lat="46.5397862" lon="12.3557429"><ele>1306.0</ele><time>2026-04-20T17:00:04.871Z</time></trkpt><trkpt lat="46.5398111" lon="12.3558485"><ele>1304.6666666666667</ele><time>2026-04-20T17:00:05.885Z</time></trkpt><trkpt lat="46.5398349" lon="12.3559565"><ele>1303.3333333333333</ele><time>2026-04-20T17:00:06.875Z</time></trkpt><trkpt lat="46.5398517" lon="12.3560695"><ele>1302.0</ele><time>2026-04-20T17:00:07.892Z</time></trkpt><trkpt lat="46.5398757" lon="12.3561787"><ele>1302.0</ele><time>2026-04-20T17:00:08.875Z</time></trkpt><trkpt lat="46.5398958" lon="12.3562906"><ele>1302.0</ele><time>2026-04-20T17:00:09.881Z</time></trkpt><trkpt lat="46.53991" lon="12.3563999"><ele>1302.0</ele><time>2026-04-20T17:00:10.879Z</time></trkpt><trkpt lat="46.5399214" lon="12.356507"><ele>1302.0</ele><time>2026-04-20T17:00:11.881Z</time></trkpt><trkpt lat="46.5399336" lon="12.3566219"><ele>1302.0</ele><time>2026-04-20T17:00:12.89Z</time></trkpt><trkpt lat="46.5399369" lon="12.356729"><ele>1302.0</ele><time>2026-04-20T17:00:13.876Z</time></trkpt><trkpt lat="46.5399615" lon="12.3568206"><ele>1301.5</ele><time>2026-04-20T17:00:14.877Z</time></trkpt><trkpt lat="46.5399821" lon="12.3569099"><ele>1301.0</ele><time>2026-04-20T17:00:15.87Z</time></trkpt><trkpt lat="46.5399939" lon="12.357"><ele>1300.5</ele><time>2026-04-20T17:00:16.878Z</time></trkpt><trkpt lat="46.5400192" lon="12.3571806"><ele>1300.0</ele><time>2026-04-20T17:00:18.873Z</time></trkpt><trkpt lat="46.5400245" lon="12.357278"><ele>1299.5</ele><time>2026-04-20T17:00:19.88Z</time></trkpt><trkpt lat="46.5400204" lon="12.3573813"><ele>1299.0</ele><time>2026-04-20T17:00:20.878Z</time></trkpt><trkpt lat="46.5400058" lon="12.357485"><ele>1300.6666666666667</ele><time>2026-04-20T17:00:21.888Z</time></trkpt><trkpt lat="46.5399899" lon="12.3575895"><ele>1302.3333333333333</ele><time>2026-04-20T17:00:22.881Z</time></trkpt><trkpt lat="46.5399767" lon="12.3576951"><ele>1304.0</ele><time>2026-04-20T17:00:23.881Z</time></trkpt><trkpt lat="46.5399608" lon="12.3578002"><ele>1305.6666666666665</ele><time>2026-04-20T17:00:24.876Z</time></trkpt><trkpt lat="46.5399355" lon="12.3579024"><ele>1307.3333333333333</ele><time>2026-04-20T17:00:25.881Z</time></trkpt><trkpt lat="46.5399149" lon="12.3579927"><ele>1309.0</ele><time>2026-04-20T17:00:26.883Z</time></trkpt><trkpt lat="46.5398885" lon="12.3581615"><ele>1309.2857142857142</ele><time>2026-04-20T17:00:28.892Z</time></trkpt><trkpt lat="46.5398703" lon="12.3582538"><ele>1309.5714285714284</ele><time>2026-04-20T17:00:29.874Z</time></trkpt><trkpt lat="46.5398441" lon="12.3583485"><ele>1309.857142857143</ele><time>2026-04-20T17:00:30.878Z</time></trkpt><trkpt lat="46.5398225" lon="12.3584452"><ele>1310.142857142857</ele><time>2026-04-20T17:00:31.88Z</time></trkpt><trkpt lat="46.5397943" lon="12.3585355"><ele>1310.4285714285713</ele><time>2026-04-20T17:00:32.881Z</time></trkpt><trkpt lat="46.5397669" lon="12.3586443"><ele>1310.7142857142858</ele><time>2026-04-20T17:00:33.894Z</time></trkpt><trkpt lat="46.5397412" lon="12.3587599"><ele>1311.0</ele><time>2026-04-20T17:00:34.882Z</time></trkpt><trkpt lat="46.5397267" lon="12.3588716"><ele>1311.0</ele><time>2026-04-20T17:00:35.873Z</time></trkpt><trkpt lat="46.5396935" lon="12.3590211"><ele>1311.0</ele><time>2026-04-20T17:00:37.879Z</time></trkpt><trkpt lat="46.5396224" lon="12.3591553"><ele>1311.0</ele><time>2026-04-20T17:00:39.87Z</time></trkpt><trkpt lat="46.5395905" lon="12.3592458"><ele>1311.0</ele><time>2026-04-20T17:00:40.876Z</time></trkpt><trkpt lat="46.5395687" lon="12.3593435"><ele>1311.0</ele><time>2026-04-20T17:00:41.876Z</time></trkpt><trkpt lat="46.5395158" lon="12.3594942"><ele>1307.6</ele><time>2026-04-20T17:00:43.881Z</time></trkpt><trkpt lat="46.539487" lon="12.3596408"><ele>1304.1999999999998</ele><time>2026-04-20T17:00:45.875Z</time></trkpt><trkpt lat="46.5394632" lon="12.3598131"><ele>1300.8000000000002</ele><time>2026-04-20T17:00:47.881Z</time></trkpt><trkpt lat="46.5394468" lon="12.3599658"><ele>1297.4</ele><time>2026-04-20T17:00:49.881Z</time></trkpt><trkpt lat="46.5394521" lon="12.3600878"><ele>1294.0</ele><time>2026-04-20T17:00:50.877Z</time></trkpt><trkpt lat="46.5394297" lon="12.3602191"><ele>1293.1666666666665</ele><time>2026-04-20T17:00:51.872Z</time></trkpt><trkpt lat="46.5394102" lon="12.3603329"><ele>1292.3333333333333</ele><time>2026-04-20T17:00:52.874Z</time></trkpt><trkpt lat="46.5393904" lon="12.3604548"><ele>1291.5</ele><time>2026-04-20T17:00:53.878Z</time></trkpt><trkpt lat="46.5393737" lon="12.3605811"><ele>1290.6666666666667</ele><time>2026-04-20T17:00:54.877Z</time></trkpt><trkpt lat="46.5393526" lon="12.3607011"><ele>1289.8333333333335</ele><time>2026-04-20T17:00:55.872Z</time></trkpt><trkpt lat="46.5393225" lon="12.3608189"><ele>1289.0</ele><time>2026-04-20T17:00:56.883Z</time></trkpt><trkpt lat="46.5392965" lon="12.360928"><ele>1287.8333333333335</ele><time>2026-04-20T17:00:57.878Z</time></trkpt><trkpt lat="46.5392776" lon="12.3610443"><ele>1286.6666666666667</ele><time>2026-04-20T17:00:58.893Z</time></trkpt><trkpt lat="46.5392546" lon="12.3611634"><ele>1285.5</ele><time>2026-04-20T17:00:59.879Z</time></trkpt><trkpt lat="46.5392355" lon="12.3612716"><ele>1284.3333333333333</ele><time>2026-04-20T17:01:00.876Z</time></trkpt><trkpt lat="46.5392125" lon="12.3613763"><ele>1283.1666666666665</ele><time>2026-04-20T17:01:01.874Z</time></trkpt><trkpt lat="46.5392051" lon="12.3614827"><ele>1282.0</ele><time>2026-04-20T17:01:02.868Z</time></trkpt><trkpt lat="46.5391939" lon="12.3615772"><ele>1281.142857142857</ele><time>2026-04-20T17:01:03.877Z</time></trkpt><trkpt lat="46.5391937" lon="12.3616764"><ele>1280.2857142857142</ele><time>2026-04-20T17:01:04.874Z</time></trkpt><trkpt lat="46.5391966" lon="12.3617832"><ele>1279.4285714285716</ele><time>2026-04-20T17:01:05.868Z</time></trkpt><trkpt lat="46.5392098" lon="12.3618919"><ele>1278.5714285714284</ele><time>2026-04-20T17:01:06.877Z</time></trkpt><trkpt lat="46.5392188" lon="12.3619882"><ele>1277.7142857142856</ele><time>2026-04-20T17:01:07.875Z</time></trkpt><trkpt lat="46.5392107" lon="12.3620874"><ele>1276.857142857143</ele><time>2026-04-20T17:01:08.886Z</time></trkpt><trkpt lat="46.5391863" lon="12.3621932"><ele>1276.0</ele><time>2026-04-20T17:01:09.874Z</time></trkpt><trkpt lat="46.5391729" lon="12.3623089"><ele>1274.1666666666665</ele><time>2026-04-20T17:01:10.877Z</time></trkpt><trkpt lat="46.5391555" lon="12.3624343"><ele>1272.3333333333333</ele><time>2026-04-20T17:01:11.878Z</time></trkpt><trkpt lat="46.5391534" lon="12.3625411"><ele>1270.5</ele><time>2026-04-20T17:01:12.873Z</time></trkpt><trkpt lat="46.5391414" lon="12.3626489"><ele>1268.6666666666667</ele><time>2026-04-20T17:01:13.873Z</time></trkpt><trkpt lat="46.5391378" lon="12.3627589"><ele>1266.8333333333335</ele><time>2026-04-20T17:01:14.876Z</time></trkpt><trkpt lat="46.5391397" lon="12.3628721"><ele>1265.0</ele><time>2026-04-20T17:01:15.885Z</time></trkpt><trkpt lat="46.5391478" lon="12.3629909"><ele>1264.1666666666667</ele><time>2026-04-20T17:01:16.872Z</time></trkpt><trkpt lat="46.5391656" lon="12.3631083"><ele>1263.3333333333335</ele><time>2026-04-20T17:01:17.888Z</time></trkpt><trkpt lat="46.5391818" lon="12.3632155"><ele>1262.5</ele><time>2026-04-20T17:01:18.876Z</time></trkpt><trkpt lat="46.5391946" lon="12.3633275"><ele>1261.6666666666667</ele><time>2026-04-20T17:01:19.88Z</time></trkpt><trkpt lat="46.5392164" lon="12.3634268"><ele>1260.8333333333333</ele><time>2026-04-20T17:01:20.874Z</time></trkpt><trkpt lat="46.5392353" lon="12.3635245"><ele>1260.0</ele><time>2026-04-20T17:01:21.875Z</time></trkpt><trkpt lat="46.5392571" lon="12.3636341"><ele>1260.0</ele><time>2026-04-20T17:01:22.889Z</time></trkpt><trkpt lat="46.5392806" lon="12.3637498"><ele>1260.0</ele><time>2026-04-20T17:01:23.881Z</time></trkpt><trkpt lat="46.5393114" lon="12.3638627"><ele>1260.0</ele><time>2026-04-20T17:01:24.873Z</time></trkpt><trkpt lat="46.5393384" lon="12.3639598"><ele>1260.0</ele><time>2026-04-20T17:01:25.882Z</time></trkpt><trkpt lat="46.5393639" lon="12.3640533"><ele>1260.0</ele><time>2026-04-20T17:01:26.875Z</time></trkpt><trkpt lat="46.5394043" lon="12.3641434"><ele>1260.0</ele><time>2026-04-20T17:01:27.892Z</time></trkpt><trkpt lat="46.5394397" lon="12.3642373"><ele>1258.0</ele><time>2026-04-20T17:01:28.884Z</time></trkpt><trkpt lat="46.539473" lon="12.3643331"><ele>1256.0</ele><time>2026-04-20T17:01:29.883Z</time></trkpt><trkpt lat="46.5395048" lon="12.3644164"><ele>1254.0</ele><time>2026-04-20T17:01:30.881Z</time></trkpt><trkpt lat="46.5395691" lon="12.3645674"><ele>1252.0</ele><time>2026-04-20T17:01:32.874Z</time></trkpt><trkpt lat="46.5396026" lon="12.3647144"><ele>1250.0</ele><time>2026-04-20T17:01:34.875Z</time></trkpt><trkpt lat="46.5396109" lon="12.3648812"><ele>1250.0</ele><time>2026-04-20T17:01:36.873Z</time></trkpt><trkpt lat="46.5396443" lon="12.3650595"><ele>1250.0</ele><time>2026-04-20T17:01:38.875Z</time></trkpt><trkpt lat="46.5396763" lon="12.3651634"><ele>1250.0</ele><time>2026-04-20T17:01:39.88Z</time></trkpt><trkpt lat="46.5397141" lon="12.3652874"><ele>1250.0</ele><time>2026-04-20T17:01:40.871Z</time></trkpt><trkpt lat="46.5397617" lon="12.3654122"><ele>1250.0</ele><time>2026-04-20T17:01:41.872Z</time></trkpt><trkpt lat="46.5397989" lon="12.3655244"><ele>1247.1666666666667</ele><time>2026-04-20T17:01:42.876Z</time></trkpt><trkpt lat="46.5398401" lon="12.3656145"><ele>1244.3333333333335</ele><time>2026-04-20T17:01:43.88Z</time></trkpt><trkpt lat="46.5398833" lon="12.3657154"><ele>1241.5</ele><time>2026-04-20T17:01:44.876Z</time></trkpt><trkpt lat="46.5399208" lon="12.3658063"><ele>1238.6666666666667</ele><time>2026-04-20T17:01:45.88Z</time></trkpt><trkpt lat="46.5399637" lon="12.3658979"><ele>1235.8333333333333</ele><time>2026-04-20T17:01:46.871Z</time></trkpt><trkpt lat="46.540006" lon="12.3659927"><ele>1233.0</ele><time>2026-04-20T17:01:47.875Z</time></trkpt><trkpt lat="46.5400569" lon="12.366112"><ele>1233.0</ele><time>2026-04-20T17:01:49.88Z</time></trkpt><trkpt lat="46.5400126" lon="12.3661961"><ele>1233.0</ele><time>2026-04-20T17:01:52.877Z</time></trkpt><trkpt lat="46.5399419" lon="12.36611"><ele>1233.0</ele><time>2026-04-20T17:01:55.889Z</time></trkpt><trkpt lat="46.5398697" lon="12.3661337"><ele>1233.0</ele><time>2026-04-20T17:01:58.881Z</time></trkpt><trkpt lat="46.5398944" lon="12.3662591"><ele>1233.0</ele><time>2026-04-20T17:02:00.87Z</time></trkpt><trkpt lat="46.5399589" lon="12.366372"><ele>1233.0</ele><time>2026-04-20T17:02:02.882Z</time></trkpt><trkpt lat="46.5400361" lon="12.3665099"><ele>1228.6</ele><time>2026-04-20T17:02:04.877Z</time></trkpt><trkpt lat="46.5400599" lon="12.3666008"><ele>1224.1999999999998</ele><time>2026-04-20T17:02:05.868Z</time></trkpt><trkpt lat="46.5400799" lon="12.366689"><ele>1219.8</ele><time>2026-04-20T17:02:06.876Z</time></trkpt><trkpt lat="46.540102" lon="12.366857"><ele>1215.3999999999999</ele><time>2026-04-20T17:02:08.877Z</time></trkpt><trkpt lat="46.5401321" lon="12.3670238"><ele>1211.0</ele><time>2026-04-20T17:02:10.88Z</time></trkpt><trkpt lat="46.5402033" lon="12.3671091"><ele>1211.0</ele><time>2026-04-20T17:02:12.874Z</time></trkpt><trkpt lat="46.5402765" lon="12.3671165"><ele>1211.0</ele><time>2026-04-20T17:02:15.878Z</time></trkpt><trkpt lat="46.5403511" lon="12.3671382"><ele>1211.0</ele><time>2026-04-20T17:02:28.875Z</time></trkpt><trkpt lat="46.5404206" lon="12.3672076"><ele>1211.0</ele><time>2026-04-20T17:02:30.879Z</time></trkpt><trkpt lat="46.5404983" lon="12.3672903"><ele>1211.0</ele><time>2026-04-20T17:02:32.874Z</time></trkpt><trkpt lat="46.5405645" lon="12.3674284"><ele>1211.0</ele><time>2026-04-20T17:02:34.874Z</time></trkpt><trkpt lat="46.5406011" lon="12.3675078"><ele>1211.0</ele><time>2026-04-20T17:02:35.874Z</time></trkpt><trkpt lat="46.5406347" lon="12.3676021"><ele>1211.0</ele><time>2026-04-20T17:02:36.877Z</time></trkpt><trkpt lat="46.5406637" lon="12.3676964"><ele>1211.0</ele><time>2026-04-20T17:02:37.874Z</time></trkpt><trkpt lat="46.5407083" lon="12.3677857"><ele>1211.0</ele><time>2026-04-20T17:02:39.88Z</time></trkpt><trkpt lat="46.5407717" lon="12.3677734"><ele>1211.0</ele><time>2026-04-20T17:02:41.876Z</time></trkpt><trkpt lat="46.5408389" lon="12.367648"><ele>1211.0</ele><time>2026-04-20T17:02:43.875Z</time></trkpt><trkpt lat="46.5409073" lon="12.3675143"><ele>1211.0</ele><time>2026-04-20T17:02:45.889Z</time></trkpt><trkpt lat="46.5409195" lon="12.3673828"><ele>1211.0</ele><time>2026-04-20T17:02:48.873Z</time></trkpt><trkpt lat="46.5408916" lon="12.3672887"><ele>1211.0</ele><time>2026-04-20T17:02:50.875Z</time></trkpt><trkpt lat="46.5408905" lon="12.3671965"><ele>1211.0</ele><time>2026-04-20T17:02:52.881Z</time></trkpt><trkpt lat="46.5409175" lon="12.3670854"><ele>1211.0</ele><time>2026-04-20T17:02:54.878Z</time></trkpt><trkpt lat="46.5409419" lon="12.3669671"><ele>1211.0</ele><time>2026-04-20T17:02:56.891Z</time></trkpt><trkpt lat="46.5409471" lon="12.366874"><ele>1211.0</ele><time>2026-04-20T17:03:00.871Z</time></trkpt><trkpt lat="46.5409093" lon="12.3669561"><ele>1211.0</ele><time>2026-04-20T17:03:25.869Z</time></trkpt><trkpt lat="46.5409097" lon="12.3670489"><ele>1211.0</ele><time>2026-04-20T17:03:28.879Z</time></trkpt><trkpt lat="46.5408988" lon="12.3671721"><ele>1211.0</ele><time>2026-04-20T17:03:31.883Z</time></trkpt><trkpt lat="46.540879" lon="12.3672598"><ele>1211.0</ele><time>2026-04-20T17:03:35.876Z</time></trkpt><trkpt lat="46.5408872" lon="12.3673728"><ele>1211.0</ele><time>2026-04-20T17:03:41.875Z</time></trkpt><trkpt lat="46.540924" lon="12.367456"><ele>1211.0</ele><time>2026-04-20T17:03:52.877Z</time></trkpt><trkpt lat="46.5409606" lon="12.3673411"><ele>1214.8333333333335</ele><time>2026-04-20T17:04:05.876Z</time></trkpt><trkpt lat="46.5410172" lon="12.367194"><ele>1218.6666666666667</ele><time>2026-04-20T17:04:07.886Z</time></trkpt><trkpt lat="46.5410847" lon="12.3671115"><ele>1222.5</ele><time>2026-04-20T17:04:10.881Z</time></trkpt><trkpt lat="46.5411482" lon="12.3671111"><ele>1226.3333333333333</ele><time>2026-04-20T17:04:12.876Z</time></trkpt><trkpt lat="46.541229" lon="12.367139"><ele>1230.1666666666665</ele><time>2026-04-20T17:04:14.881Z</time></trkpt><trkpt lat="46.541314" lon="12.3671131"><ele>1234.0</ele><time>2026-04-20T17:04:17.878Z</time></trkpt><trkpt lat="46.5413723" lon="12.3670384"><ele>1236.6666666666665</ele><time>2026-04-20T17:04:20.875Z</time></trkpt><trkpt lat="46.5414129" lon="12.3669301"><ele>1239.3333333333333</ele><time>2026-04-20T17:04:23.876Z</time></trkpt><trkpt lat="46.5414761" lon="12.3668371"><ele>1242.0</ele><time>2026-04-20T17:04:26.875Z</time></trkpt><trkpt lat="46.5415352" lon="12.3667842"><ele>1244.6666666666667</ele><time>2026-04-20T17:04:28.875Z</time></trkpt><trkpt lat="46.5416036" lon="12.3667225"><ele>1247.3333333333335</ele><time>2026-04-20T17:04:31.894Z</time></trkpt><trkpt lat="46.5416953" lon="12.3667021"><ele>1250.0</ele><time>2026-04-20T17:04:34.884Z</time></trkpt><trkpt lat="46.541766" lon="12.3666994"><ele>1250.0</ele><time>2026-04-20T17:04:36.876Z</time></trkpt><trkpt lat="46.5418475" lon="12.3666796"><ele>1250.0</ele><time>2026-04-20T17:04:38.873Z</time></trkpt><trkpt lat="46.5419377" lon="12.3666745"><ele>1250.0</ele><time>2026-04-20T17:04:40.889Z</time></trkpt><trkpt lat="46.5420244" lon="12.3666858"><ele>1250.0</ele><time>2026-04-20T17:04:42.873Z</time></trkpt><trkpt lat="46.542103" lon="12.3666702"><ele>1250.0</ele><time>2026-04-20T17:04:44.879Z</time></trkpt><trkpt lat="46.5421842" lon="12.366648"><ele>1250.0</ele><time>2026-04-20T17:04:47.895Z</time></trkpt><trkpt lat="46.5422433" lon="12.3665817"><ele>1251.6666666666667</ele><time>2026-04-20T17:04:49.879Z</time></trkpt><trkpt lat="46.5423106" lon="12.3665217"><ele>1253.3333333333335</ele><time>2026-04-20T17:04:51.873Z</time></trkpt><trkpt lat="46.5423712" lon="12.3664784"><ele>1255.0</ele><time>2026-04-20T17:04:53.877Z</time></trkpt><trkpt lat="46.5424368" lon="12.3664266"><ele>1256.6666666666667</ele><time>2026-04-20T17:04:55.874Z</time></trkpt><trkpt lat="46.5425306" lon="12.3663789"><ele>1258.3333333333333</ele><time>2026-04-20T17:04:58.876Z</time></trkpt><trkpt lat="46.5426109" lon="12.3663066"><ele>1260.0</ele><time>2026-04-20T17:05:00.869Z</time></trkpt><trkpt lat="46.5427145" lon="12.3661916"><ele>1260.0</ele><time>2026-04-20T17:05:02.876Z</time></trkpt><trkpt lat="46.5427793" lon="12.3661112"><ele>1260.0</ele><time>2026-04-20T17:05:04.88Z</time></trkpt><trkpt lat="46.5427144" lon="12.3661966"><ele>1260.0</ele><time>2026-04-20T17:05:25.873Z</time></trkpt><trkpt lat="46.5426493" lon="12.3662497"><ele>1260.0</ele><time>2026-04-20T17:05:27.885Z</time></trkpt><trkpt lat="46.5425741" lon="12.3663067"><ele>1260.0</ele><time>2026-04-20T17:05:29.873Z</time></trkpt><trkpt lat="46.542505" lon="12.3663521"><ele>1260.0</ele><time>2026-04-20T17:05:31.884Z</time></trkpt><trkpt lat="46.5424388" lon="12.3664128"><ele>1260.0</ele><time>2026-04-20T17:05:34.88Z</time></trkpt><trkpt lat="46.5423655" lon="12.3664749"><ele>1260.0</ele><time>2026-04-20T17:05:37.88Z</time></trkpt><trkpt lat="46.5423178" lon="12.3665403"><ele>1260.0</ele><time>2026-04-20T17:05:39.877Z</time></trkpt><trkpt lat="46.5422502" lon="12.3666123"><ele>1260.0</ele><time>2026-04-20T17:05:42.888Z</time></trkpt><trkpt lat="46.5421838" lon="12.3666625"><ele>1260.0</ele><time>2026-04-20T17:05:45.876Z</time></trkpt><trkpt lat="46.542113" lon="12.3666871"><ele>1260.0</ele><time>2026-04-20T17:05:49.876Z</time></trkpt><trkpt lat="46.5420417" lon="12.3666938"><ele>1258.3333333333333</ele><time>2026-04-20T17:05:53.882Z</time></trkpt><trkpt lat="46.5419537" lon="12.3667029"><ele>1256.6666666666667</ele><time>2026-04-20T17:05:57.879Z</time></trkpt><trkpt lat="46.5418699" lon="12.3667196"><ele>1255.0</ele><time>2026-04-20T17:06:00.874Z</time></trkpt><trkpt lat="46.5417964" lon="12.3667097"><ele>1253.3333333333335</ele><time>2026-04-20T17:06:02.876Z</time></trkpt><trkpt lat="46.5417218" lon="12.3667081"><ele>1251.6666666666667</ele><time>2026-04-20T17:06:04.875Z</time></trkpt><trkpt lat="46.5416282" lon="12.3667186"><ele>1250.0</ele><time>2026-04-20T17:06:06.877Z</time></trkpt><trkpt lat="46.5415527" lon="12.3667589"><ele>1250.0000000000002</ele><time>2026-04-20T17:06:08.879Z</time></trkpt><trkpt lat="46.5414825" lon="12.3668462"><ele>1250.0</ele><time>2026-04-20T17:06:11.877Z</time></trkpt><trkpt lat="46.5414302" lon="12.3669066"><ele>1250.0</ele><time>2026-04-20T17:06:13.878Z</time></trkpt><trkpt lat="46.5414029" lon="12.3669945"><ele>1250.0</ele><time>2026-04-20T17:06:15.89Z</time></trkpt><trkpt lat="46.5413659" lon="12.3670724"><ele>1250.0</ele><time>2026-04-20T17:06:18.882Z</time></trkpt><trkpt lat="46.5413057" lon="12.3671064"><ele>1250.0000000000002</ele><time>2026-04-20T17:06:23.879Z</time></trkpt><trkpt lat="46.5412258" lon="12.3671288"><ele>1250.0</ele><time>2026-04-20T17:06:26.877Z</time></trkpt><trkpt lat="46.5411484" lon="12.3671042"><ele>1247.7142857142858</ele><time>2026-04-20T17:06:29.872Z</time></trkpt><trkpt lat="46.5410736" lon="12.3671248"><ele>1245.4285714285716</ele><time>2026-04-20T17:06:32.874Z</time></trkpt><trkpt lat="46.5410235" lon="12.3671824"><ele>1243.1428571428573</ele><time>2026-04-20T17:06:34.874Z</time></trkpt><trkpt lat="46.5409851" lon="12.3672643"><ele>1240.857142857143</ele><time>2026-04-20T17:06:36.878Z</time></trkpt><trkpt lat="46.540942" lon="12.3673647"><ele>1238.5714285714284</ele><time>2026-04-20T17:06:38.871Z</time></trkpt><trkpt lat="46.5409243" lon="12.3674699"><ele>1236.2857142857144</ele><time>2026-04-20T17:06:40.882Z</time></trkpt><trkpt lat="46.5408988" lon="12.3675654"><ele>1234.0</ele><time>2026-04-20T17:06:42.877Z</time></trkpt><trkpt lat="46.5408594" lon="12.3676839"><ele>1230.1666666666665</ele><time>2026-04-20T17:06:44.89Z</time></trkpt><trkpt lat="46.5408198" lon="12.3677723"><ele>1226.3333333333333</ele><time>2026-04-20T17:06:46.878Z</time></trkpt><trkpt lat="46.5407427" lon="12.3677966"><ele>1222.5</ele><time>2026-04-20T17:06:49.883Z</time></trkpt><trkpt lat="46.5406736" lon="12.3677234"><ele>1218.6666666666667</ele><time>2026-04-20T17:06:52.874Z</time></trkpt><trkpt lat="46.540625" lon="12.36764"><ele>1214.8333333333335</ele><time>2026-04-20T17:06:54.877Z</time></trkpt><trkpt lat="46.5405837" lon="12.367498"><ele>1211.0</ele><time>2026-04-20T17:06:56.884Z</time></trkpt><trkpt lat="46.5405345" lon="12.3673576"><ele>1211.0</ele><time>2026-04-20T17:06:58.875Z</time></trkpt><trkpt lat="46.5404674" lon="12.3672178"><ele>1211.0</ele><time>2026-04-20T17:07:00.873Z</time></trkpt><trkpt lat="46.5403956" lon="12.3671241"><ele>1211.0</ele><time>2026-04-20T17:07:02.877Z</time></trkpt><trkpt lat="46.5403647" lon="12.3672102"><ele>1211.0</ele><time>2026-04-20T17:07:06.888Z</time></trkpt><trkpt lat="46.5403838" lon="12.367306"><ele>1211.0</ele><time>2026-04-20T17:07:07.878Z</time></trkpt><trkpt lat="46.5403931" lon="12.3673991"><ele>1211.0</ele><time>2026-04-20T17:07:08.877Z</time></trkpt><trkpt lat="46.5403983" lon="12.3674951"><ele>1211.0</ele><time>2026-04-20T17:07:09.876Z</time></trkpt><trkpt lat="46.5404104" lon="12.3676572"><ele>1211.0</ele><time>2026-04-20T17:07:11.885Z</time></trkpt><trkpt lat="46.5404058" lon="12.3678202"><ele>1211.0</ele><time>2026-04-20T17:07:13.871Z</time></trkpt><trkpt lat="46.5404138" lon="12.3679884"><ele>1211.0</ele><time>2026-04-20T17:07:15.88Z</time></trkpt><trkpt lat="46.540438" lon="12.3681461"><ele>1206.6</ele><time>2026-04-20T17:07:17.881Z</time></trkpt><trkpt lat="46.5404485" lon="12.368302"><ele>1202.1999999999998</ele><time>2026-04-20T17:07:19.885Z</time></trkpt><trkpt lat="46.5404567" lon="12.3684349"><ele>1197.8000000000002</ele><time>2026-04-20T17:07:21.885Z</time></trkpt><trkpt lat="46.5404591" lon="12.3685696"><ele>1193.4</ele><time>2026-04-20T17:07:23.875Z</time></trkpt><trkpt lat="46.5404848" lon="12.3687155"><ele>1189.0</ele><time>2026-04-20T17:07:25.868Z</time></trkpt><trkpt lat="46.5405516" lon="12.3688729"><ele>1184.8333333333333</ele><time>2026-04-20T17:07:27.88Z</time></trkpt><trkpt lat="46.5406063" lon="12.36895"><ele>1180.6666666666665</ele><time>2026-04-20T17:07:28.871Z</time></trkpt><trkpt lat="46.5406611" lon="12.3690225"><ele>1176.5</ele><time>2026-04-20T17:07:29.879Z</time></trkpt><trkpt lat="46.5407218" lon="12.3691008"><ele>1172.3333333333333</ele><time>2026-04-20T17:07:30.876Z</time></trkpt><trkpt lat="46.5407947" lon="12.3691722"><ele>1168.1666666666667</ele><time>2026-04-20T17:07:31.892Z</time></trkpt><trkpt lat="46.5408616" lon="12.3692407"><ele>1164.0</ele><time>2026-04-20T17:07:32.87Z</time></trkpt><trkpt lat="46.5409192" lon="12.3693073"><ele>1164.0</ele><time>2026-04-20T17:07:33.876Z</time></trkpt><trkpt lat="46.5409789" lon="12.3693753"><ele>1164.0</ele><time>2026-04-20T17:07:34.879Z</time></trkpt><trkpt lat="46.5410781" lon="12.3694747"><ele>1164.0</ele><time>2026-04-20T17:07:36.879Z</time></trkpt><trkpt lat="46.5411759" lon="12.3695698"><ele>1164.0</ele><time>2026-04-20T17:07:38.876Z</time></trkpt><trkpt lat="46.5412376" lon="12.3696918"><ele>1164.0</ele><time>2026-04-20T17:07:40.882Z</time></trkpt><trkpt lat="46.5412599" lon="12.369829"><ele>1163.6666666666667</ele><time>2026-04-20T17:07:42.872Z</time></trkpt><trkpt lat="46.5412232" lon="12.3699612"><ele>1163.3333333333333</ele><time>2026-04-20T17:07:44.881Z</time></trkpt><trkpt lat="46.5411925" lon="12.3700602"><ele>1163.0</ele><time>2026-04-20T17:07:45.882Z</time></trkpt><trkpt lat="46.5411663" lon="12.3701625"><ele>1162.6666666666665</ele><time>2026-04-20T17:07:46.89Z</time></trkpt><trkpt lat="46.5411611" lon="12.3702597"><ele>1162.3333333333333</ele><time>2026-04-20T17:07:47.882Z</time></trkpt><trkpt lat="46.5411623" lon="12.3703657"><ele>1162.0</ele><time>2026-04-20T17:07:48.876Z</time></trkpt><trkpt lat="46.5411692" lon="12.3704611"><ele>1160.5714285714287</ele><time>2026-04-20T17:07:49.875Z</time></trkpt><trkpt lat="46.5411875" lon="12.3705594"><ele>1159.142857142857</ele><time>2026-04-20T17:07:50.88Z</time></trkpt><trkpt lat="46.5412149" lon="12.3706425"><ele>1157.7142857142858</ele><time>2026-04-20T17:07:51.872Z</time></trkpt><trkpt lat="46.5412406" lon="12.3707295"><ele>1156.2857142857142</ele><time>2026-04-20T17:07:52.877Z</time></trkpt><trkpt lat="46.5412684" lon="12.3708301"><ele>1154.857142857143</ele><time>2026-04-20T17:07:53.874Z</time></trkpt><trkpt lat="46.5413109" lon="12.3709282"><ele>1153.4285714285716</ele><time>2026-04-20T17:07:54.88Z</time></trkpt><trkpt lat="46.5413677" lon="12.3710397"><ele>1152.0</ele><time>2026-04-20T17:07:55.875Z</time></trkpt><trkpt lat="46.5414373" lon="12.3711637"><ele>1152.0</ele><time>2026-04-20T17:07:56.883Z</time></trkpt><trkpt lat="46.5415082" lon="12.3712872"><ele>1152.0</ele><time>2026-04-20T17:07:57.882Z</time></trkpt><trkpt lat="46.5415673" lon="12.3713888"><ele>1152.0</ele><time>2026-04-20T17:07:58.875Z</time></trkpt><trkpt lat="46.541615" lon="12.371478"><ele>1152.0</ele><time>2026-04-20T17:07:59.895Z</time></trkpt><trkpt lat="46.5416626" lon="12.3715677"><ele>1152.0</ele><time>2026-04-20T17:08:00.872Z</time></trkpt><trkpt lat="46.5417061" lon="12.3716473"><ele>1152.0</ele><time>2026-04-20T17:08:01.874Z</time></trkpt><trkpt lat="46.5417477" lon="12.3717201"><ele>1153.1666666666667</ele><time>2026-04-20T17:08:02.873Z</time></trkpt><trkpt lat="46.5418368" lon="12.371851"><ele>1154.3333333333333</ele><time>2026-04-20T17:08:04.88Z</time></trkpt><trkpt lat="46.5418959" lon="12.3719209"><ele>1155.5</ele><time>2026-04-20T17:08:05.882Z</time></trkpt><trkpt lat="46.5419551" lon="12.3720006"><ele>1156.6666666666665</ele><time>2026-04-20T17:08:06.874Z</time></trkpt><trkpt lat="46.5420154" lon="12.37207"><ele>1157.8333333333333</ele><time>2026-04-20T17:08:07.875Z</time></trkpt><trkpt lat="46.5420681" lon="12.3721596"><ele>1159.0</ele><time>2026-04-20T17:08:08.878Z</time></trkpt><trkpt lat="46.5421233" lon="12.3722546"><ele>1153.8</ele><time>2026-04-20T17:08:09.88Z</time></trkpt><trkpt lat="46.5421833" lon="12.3723605"><ele>1148.6000000000001</ele><time>2026-04-20T17:08:10.873Z</time></trkpt><trkpt lat="46.542238" lon="12.3724829"><ele>1143.4</ele><time>2026-04-20T17:08:11.87Z</time></trkpt><trkpt lat="46.5422982" lon="12.3726083"><ele>1138.2</ele><time>2026-04-20T17:08:12.879Z</time></trkpt><trkpt lat="46.5423419" lon="12.3727474"><ele>1133.0</ele><time>2026-04-20T17:08:13.877Z</time></trkpt><trkpt lat="46.5423794" lon="12.3728973"><ele>1130.4</ele><time>2026-04-20T17:08:14.872Z</time></trkpt><trkpt lat="46.54242" lon="12.3730535"><ele>1127.8</ele><time>2026-04-20T17:08:15.871Z</time></trkpt><trkpt lat="46.5424636" lon="12.373196"><ele>1125.2</ele><time>2026-04-20T17:08:16.881Z</time></trkpt><trkpt lat="46.5424898" lon="12.3733215"><ele>1122.6</ele><time>2026-04-20T17:08:17.878Z</time></trkpt><trkpt lat="46.5425058" lon="12.3734348"><ele>1120.0</ele><time>2026-04-20T17:08:18.875Z</time></trkpt><trkpt lat="46.5425113" lon="12.3735532"><ele>1120.0</ele><time>2026-04-20T17:08:19.898Z</time></trkpt><trkpt lat="46.5425215" lon="12.3736702"><ele>1120.0</ele><time>2026-04-20T17:08:20.877Z</time></trkpt><trkpt lat="46.5425467" lon="12.373779"><ele>1120.0</ele><time>2026-04-20T17:08:21.874Z</time></trkpt><trkpt lat="46.5425789" lon="12.3738816"><ele>1120.0</ele><time>2026-04-20T17:08:22.877Z</time></trkpt><trkpt lat="46.5426363" lon="12.3739703"><ele>1120.0</ele><time>2026-04-20T17:08:23.887Z</time></trkpt><trkpt lat="46.5427142" lon="12.3740831"><ele>1120.0</ele><time>2026-04-20T17:08:24.878Z</time></trkpt><trkpt lat="46.5428121" lon="12.3741907"><ele>1122.75</ele><time>2026-04-20T17:08:25.889Z</time></trkpt><trkpt lat="46.5429168" lon="12.3743415"><ele>1125.5</ele><time>2026-04-20T17:08:26.871Z</time></trkpt><trkpt lat="46.5430196" lon="12.3744864"><ele>1128.25</ele><time>2026-04-20T17:08:27.883Z</time></trkpt><trkpt lat="46.5431179" lon="12.3746274"><ele>1131.0</ele><time>2026-04-20T17:08:28.88Z</time></trkpt><trkpt lat="46.5432083" lon="12.3747635"><ele>1123.5</ele><time>2026-04-20T17:08:29.87Z</time></trkpt><trkpt lat="46.5433012" lon="12.3748944"><ele>1116.0</ele><time>2026-04-20T17:08:30.877Z</time></trkpt><trkpt lat="46.5433907" lon="12.3750159"><ele>1108.5</ele><time>2026-04-20T17:08:31.873Z</time></trkpt><trkpt lat="46.5434791" lon="12.3751493"><ele>1101.0</ele><time>2026-04-20T17:08:32.873Z</time></trkpt><trkpt lat="46.5435543" lon="12.3752713"><ele>1101.0</ele><time>2026-04-20T17:08:33.894Z</time></trkpt><trkpt lat="46.5436324" lon="12.3753931"><ele>1101.0</ele><time>2026-04-20T17:08:34.875Z</time></trkpt><trkpt lat="46.5436938" lon="12.3755256"><ele>1101.0</ele><time>2026-04-20T17:08:35.873Z</time></trkpt><trkpt lat="46.5437473" lon="12.375668"><ele>1101.0</ele><time>2026-04-20T17:08:36.882Z</time></trkpt><trkpt lat="46.5437924" lon="12.3757998"><ele>1101.0</ele><time>2026-04-20T17:08:37.883Z</time></trkpt><trkpt lat="46.5438227" lon="12.37592"><ele>1102.8</ele><time>2026-04-20T17:08:38.88Z</time></trkpt><trkpt lat="46.5438687" lon="12.3760232"><ele>1104.6</ele><time>2026-04-20T17:08:39.876Z</time></trkpt><trkpt lat="46.5439265" lon="12.3761373"><ele>1106.4</ele><time>2026-04-20T17:08:40.902Z</time></trkpt><trkpt lat="46.5440024" lon="12.376258"><ele>1108.2</ele><time>2026-04-20T17:08:41.879Z</time></trkpt><trkpt lat="46.5440778" lon="12.3763839"><ele>1110.0</ele><time>2026-04-20T17:08:42.885Z</time></trkpt><trkpt lat="46.5441594" lon="12.3765259"><ele>1105.25</ele><time>2026-04-20T17:08:43.876Z</time></trkpt><trkpt lat="46.5442554" lon="12.3766554"><ele>1100.5</ele><time>2026-04-20T17:08:44.875Z</time></trkpt><trkpt lat="46.5443467" lon="12.3767823"><ele>1095.75</ele><time>2026-04-20T17:08:45.881Z</time></trkpt><trkpt lat="46.5444349" lon="12.3768989"><ele>1091.0</ele><time>2026-04-20T17:08:46.872Z</time></trkpt><trkpt lat="46.5445125" lon="12.3770123"><ele>1091.3999999999999</ele><time>2026-04-20T17:08:47.894Z</time></trkpt><trkpt lat="46.5445945" lon="12.3771053"><ele>1091.8</ele><time>2026-04-20T17:08:48.873Z</time></trkpt><trkpt lat="46.5446834" lon="12.377198"><ele>1092.1999999999998</ele><time>2026-04-20T17:08:49.879Z</time></trkpt><trkpt lat="46.5447689" lon="12.37729"><ele>1092.6</ele><time>2026-04-20T17:08:50.881Z</time></trkpt><trkpt lat="46.5448346" lon="12.3773874"><ele>1093.0</ele><time>2026-04-20T17:08:51.877Z</time></trkpt><trkpt lat="46.5448848" lon="12.3774949"><ele>1093.0</ele><time>2026-04-20T17:08:52.884Z</time></trkpt><trkpt lat="46.5449291" lon="12.3776098"><ele>1093.0</ele><time>2026-04-20T17:08:53.887Z</time></trkpt><trkpt lat="46.5449858" lon="12.3777292"><ele>1093.0</ele><time>2026-04-20T17:08:54.879Z</time></trkpt><trkpt lat="46.5450466" lon="12.3778411"><ele>1093.0</ele><time>2026-04-20T17:08:55.878Z</time></trkpt><trkpt lat="46.5450903" lon="12.3779338"><ele>1093.0</ele><time>2026-04-20T17:08:56.875Z</time></trkpt><trkpt lat="46.5451214" lon="12.3780157"><ele>1093.0</ele><time>2026-04-20T17:08:57.887Z</time></trkpt><trkpt lat="46.5451586" lon="12.3781037"><ele>1091.6</ele><time>2026-04-20T17:08:58.878Z</time></trkpt><trkpt lat="46.5452033" lon="12.3781979"><ele>1090.1999999999998</ele><time>2026-04-20T17:08:59.875Z</time></trkpt><trkpt lat="46.545287" lon="12.3782805"><ele>1088.8</ele><time>2026-04-20T17:09:00.883Z</time></trkpt><trkpt lat="46.5453897" lon="12.3783768"><ele>1087.3999999999999</ele><time>2026-04-20T17:09:01.881Z</time></trkpt><trkpt lat="46.5454911" lon="12.3784824"><ele>1086.0</ele><time>2026-04-20T17:09:02.884Z</time></trkpt><trkpt lat="46.545561" lon="12.3785949"><ele>1086.0</ele><time>2026-04-20T17:09:03.88Z</time></trkpt><trkpt lat="46.5456307" lon="12.3786968"><ele>1086.0</ele><time>2026-04-20T17:09:04.881Z</time></trkpt><trkpt lat="46.5456932" lon="12.3787824"><ele>1086.0</ele><time>2026-04-20T17:09:05.866Z</time></trkpt><trkpt lat="46.5457394" lon="12.3788502"><ele>1086.0</ele><time>2026-04-20T17:09:06.882Z</time></trkpt><trkpt lat="46.5457902" lon="12.378919"><ele>1086.0</ele><time>2026-04-20T17:09:07.875Z</time></trkpt><trkpt lat="46.5458455" lon="12.3789673"><ele>1086.0</ele><time>2026-04-20T17:09:08.884Z</time></trkpt><trkpt lat="46.5459159" lon="12.3789963"><ele>1083.3999999999999</ele><time>2026-04-20T17:09:09.883Z</time></trkpt><trkpt lat="46.5459971" lon="12.3790082"><ele>1080.8</ele><time>2026-04-20T17:09:10.878Z</time></trkpt><trkpt lat="46.5460888" lon="12.379022"><ele>1078.1999999999998</ele><time>2026-04-20T17:09:11.893Z</time></trkpt><trkpt lat="46.5461828" lon="12.3790202"><ele>1075.6</ele><time>2026-04-20T17:09:12.879Z</time></trkpt><trkpt lat="46.5462819" lon="12.3790376"><ele>1073.0</ele><time>2026-04-20T17:09:13.877Z</time></trkpt><trkpt lat="46.5463751" lon="12.3790507"><ele>1073.0</ele><time>2026-04-20T17:09:14.876Z</time></trkpt><trkpt lat="46.5464626" lon="12.3791052"><ele>1073.0</ele><time>2026-04-20T17:09:15.879Z</time></trkpt><trkpt lat="46.5465331" lon="12.3791651"><ele>1073.0</ele><time>2026-04-20T17:09:16.874Z</time></trkpt><trkpt lat="46.5466056" lon="12.3792382"><ele>1073.0</ele><time>2026-04-20T17:09:17.876Z</time></trkpt><trkpt lat="46.5466553" lon="12.3793176"><ele>1073.0</ele><time>2026-04-20T17:09:18.882Z</time></trkpt><trkpt lat="46.5466858" lon="12.3794112"><ele>1073.0</ele><time>2026-04-20T17:09:19.887Z</time></trkpt><trkpt lat="46.5466972" lon="12.379502"><ele>1073.0</ele><time>2026-04-20T17:09:20.874Z</time></trkpt><trkpt lat="46.5467013" lon="12.3796066"><ele>1073.0</ele><time>2026-04-20T17:09:21.899Z</time></trkpt><trkpt lat="46.5467085" lon="12.3797126"><ele>1073.0</ele><time>2026-04-20T17:09:22.879Z</time></trkpt><trkpt lat="46.5467374" lon="12.3798215"><ele>1073.0</ele><time>2026-04-20T17:09:23.878Z</time></trkpt><trkpt lat="46.5467695" lon="12.3799214"><ele>1073.0</ele><time>2026-04-20T17:09:24.878Z</time></trkpt><trkpt lat="46.5468086" lon="12.3799953"><ele>1073.0</ele><time>2026-04-20T17:09:25.88Z</time></trkpt><trkpt lat="46.5468811" lon="12.3800681"><ele>1071.4</ele><time>2026-04-20T17:09:27.888Z</time></trkpt><trkpt lat="46.5470021" lon="12.3800684"><ele>1069.8</ele><time>2026-04-20T17:09:29.877Z</time></trkpt><trkpt lat="46.5471052" lon="12.3800896"><ele>1068.2</ele><time>2026-04-20T17:09:31.875Z</time></trkpt><trkpt lat="46.5471827" lon="12.3802151"><ele>1066.6</ele><time>2026-04-20T17:09:33.871Z</time></trkpt><trkpt lat="46.5472074" lon="12.3803089"><ele>1065.0</ele><time>2026-04-20T17:09:34.876Z</time></trkpt><trkpt lat="46.5472445" lon="12.3804255"><ele>1060.8333333333333</ele><time>2026-04-20T17:09:35.878Z</time></trkpt><trkpt lat="46.5472865" lon="12.3805314"><ele>1056.6666666666667</ele><time>2026-04-20T17:09:36.874Z</time></trkpt><trkpt lat="46.5473387" lon="12.3806168"><ele>1052.5</ele><time>2026-04-20T17:09:37.885Z</time></trkpt><trkpt lat="46.5474073" lon="12.3806859"><ele>1048.3333333333335</ele><time>2026-04-20T17:09:38.878Z</time></trkpt><trkpt lat="46.5474924" lon="12.3807483"><ele>1044.1666666666667</ele><time>2026-04-20T17:09:39.878Z</time></trkpt><trkpt lat="46.5475748" lon="12.3808372"><ele>1040.0</ele><time>2026-04-20T17:09:40.872Z</time></trkpt><trkpt lat="46.5476667" lon="12.380941"><ele>1040.0</ele><time>2026-04-20T17:09:41.884Z</time></trkpt><trkpt lat="46.5477502" lon="12.3810709"><ele>1040.0</ele><time>2026-04-20T17:09:42.879Z</time></trkpt><trkpt lat="46.5478333" lon="12.3811967"><ele>1040.0</ele><time>2026-04-20T17:09:43.887Z</time></trkpt><trkpt lat="46.5479294" lon="12.3813196"><ele>1040.0</ele><time>2026-04-20T17:09:44.871Z</time></trkpt><trkpt lat="46.5480327" lon="12.3814409"><ele>1038.0</ele><time>2026-04-20T17:09:45.874Z</time></trkpt><trkpt lat="46.5481428" lon="12.381564"><ele>1036.0</ele><time>2026-04-20T17:09:46.873Z</time></trkpt><trkpt lat="46.5482451" lon="12.3816864"><ele>1034.0</ele><time>2026-04-20T17:09:47.871Z</time></trkpt><trkpt lat="46.5483431" lon="12.3818122"><ele>1032.0</ele><time>2026-04-20T17:09:48.871Z</time></trkpt><trkpt lat="46.5484303" lon="12.3819526"><ele>1032.0</ele><time>2026-04-20T17:09:49.871Z</time></trkpt><trkpt lat="46.5485295" lon="12.3821204"><ele>1032.0</ele><time>2026-04-20T17:09:50.88Z</time></trkpt><trkpt lat="46.5486215" lon="12.3822891"><ele>1032.0</ele><time>2026-04-20T17:09:51.879Z</time></trkpt><trkpt lat="46.548713" lon="12.3824476"><ele>1032.0</ele><time>2026-04-20T17:09:52.878Z</time></trkpt><trkpt lat="46.5488038" lon="12.3825994"><ele>1034.25</ele><time>2026-04-20T17:09:53.888Z</time></trkpt><trkpt lat="46.5488907" lon="12.3827458"><ele>1036.5</ele><time>2026-04-20T17:09:54.872Z</time></trkpt><trkpt lat="46.5489824" lon="12.3828921"><ele>1038.75</ele><time>2026-04-20T17:09:55.876Z</time></trkpt><trkpt lat="46.5490727" lon="12.3830318"><ele>1041.0</ele><time>2026-04-20T17:09:56.878Z</time></trkpt><trkpt lat="46.549151" lon="12.3831596"><ele>1037.5</ele><time>2026-04-20T17:09:57.872Z</time></trkpt><trkpt lat="46.5492183" lon="12.3832713"><ele>1034.0</ele><time>2026-04-20T17:09:58.877Z</time></trkpt><trkpt lat="46.5492846" lon="12.3833721"><ele>1030.5</ele><time>2026-04-20T17:09:59.876Z</time></trkpt><trkpt lat="46.5493403" lon="12.3834683"><ele>1027.0</ele><time>2026-04-20T17:10:00.892Z</time></trkpt><trkpt lat="46.5494018" lon="12.3835582"><ele>1023.5</ele><time>2026-04-20T17:10:01.873Z</time></trkpt><trkpt lat="46.5494643" lon="12.3836252"><ele>1020.0</ele><time>2026-04-20T17:10:02.874Z</time></trkpt><trkpt lat="46.5495253" lon="12.3836856"><ele>1023.6</ele><time>2026-04-20T17:10:03.873Z</time></trkpt><trkpt lat="46.5496045" lon="12.3837292"><ele>1027.2</ele><time>2026-04-20T17:10:04.874Z</time></trkpt><trkpt lat="46.5496894" lon="12.3837613"><ele>1030.8</ele><time>2026-04-20T17:10:05.87Z</time></trkpt><trkpt lat="46.5497858" lon="12.383796"><ele>1034.4</ele><time>2026-04-20T17:10:06.878Z</time></trkpt><trkpt lat="46.5499017" lon="12.3838155"><ele>1038.0</ele><time>2026-04-20T17:10:07.871Z</time></trkpt><trkpt lat="46.5500449" lon="12.3838279"><ele>1031.25</ele><time>2026-04-20T17:10:08.887Z</time></trkpt><trkpt lat="46.5501879" lon="12.3838581"><ele>1024.5</ele><time>2026-04-20T17:10:09.878Z</time></trkpt><trkpt lat="46.5503303" lon="12.3838737"><ele>1017.75</ele><time>2026-04-20T17:10:10.881Z</time></trkpt><trkpt lat="46.5504744" lon="12.3839163"><ele>1011.0</ele><time>2026-04-20T17:10:11.872Z</time></trkpt><trkpt lat="46.5506298" lon="12.3839647"><ele>1010.0</ele><time>2026-04-20T17:10:12.871Z</time></trkpt><trkpt lat="46.5507901" lon="12.3840338"><ele>1009.0</ele><time>2026-04-20T17:10:13.884Z</time></trkpt><trkpt lat="46.5509536" lon="12.3841199"><ele>1008.0</ele><time>2026-04-20T17:10:14.879Z</time></trkpt><trkpt lat="46.5511346" lon="12.3841922"><ele>1012.3333333333333</ele><time>2026-04-20T17:10:15.877Z</time></trkpt><trkpt lat="46.5513268" lon="12.3842679"><ele>1016.6666666666666</ele><time>2026-04-20T17:10:16.871Z</time></trkpt><trkpt lat="46.5515206" lon="12.3843403"><ele>1021.0</ele><time>2026-04-20T17:10:17.876Z</time></trkpt><trkpt lat="46.5516764" lon="12.3844263"><ele>1021.0</ele><time>2026-04-20T17:10:18.873Z</time></trkpt><trkpt lat="46.5518378" lon="12.3844932"><ele>1021.0</ele><time>2026-04-20T17:10:19.88Z</time></trkpt><trkpt lat="46.5519895" lon="12.3845703"><ele>1021.0</ele><time>2026-04-20T17:10:20.882Z</time></trkpt><trkpt lat="46.5521275" lon="12.3846469"><ele>1016.25</ele><time>2026-04-20T17:10:21.874Z</time></trkpt><trkpt lat="46.5522573" lon="12.3847172"><ele>1011.5</ele><time>2026-04-20T17:10:22.875Z</time></trkpt><trkpt lat="46.5523697" lon="12.3848021"><ele>1006.75</ele><time>2026-04-20T17:10:23.883Z</time></trkpt><trkpt lat="46.5524666" lon="12.3848754"><ele>1002.0</ele><time>2026-04-20T17:10:24.875Z</time></trkpt><trkpt lat="46.5525596" lon="12.3849194"><ele>1002.0</ele><time>2026-04-20T17:10:25.891Z</time></trkpt><trkpt lat="46.5526606" lon="12.3849574"><ele>1002.0</ele><time>2026-04-20T17:10:26.879Z</time></trkpt><trkpt lat="46.5527728" lon="12.3850182"><ele>1002.0</ele><time>2026-04-20T17:10:27.883Z</time></trkpt><trkpt lat="46.5528983" lon="12.3850784"><ele>1002.0</ele><time>2026-04-20T17:10:28.874Z</time></trkpt><trkpt lat="46.5530258" lon="12.3851359"><ele>1007.5</ele><time>2026-04-20T17:10:29.875Z</time></trkpt><trkpt lat="46.5531496" lon="12.3851965"><ele>1013.0</ele><time>2026-04-20T17:10:30.875Z</time></trkpt><trkpt lat="46.5532786" lon="12.3852766"><ele>1018.5</ele><time>2026-04-20T17:10:31.881Z</time></trkpt><trkpt lat="46.5534047" lon="12.3853833"><ele>1024.0</ele><time>2026-04-20T17:10:32.878Z</time></trkpt><trkpt lat="46.5535184" lon="12.3854961"><ele>1019.75</ele><time>2026-04-20T17:10:33.892Z</time></trkpt><trkpt lat="46.5536291" lon="12.3856046"><ele>1015.5</ele><time>2026-04-20T17:10:34.877Z</time></trkpt><trkpt lat="46.5537487" lon="12.3856947"><ele>1011.25</ele><time>2026-04-20T17:10:35.879Z</time></trkpt><trkpt lat="46.5538643" lon="12.3857695"><ele>1007.0</ele><time>2026-04-20T17:10:36.879Z</time></trkpt><trkpt lat="46.5539735" lon="12.3858665"><ele>1007.0</ele><time>2026-04-20T17:10:37.878Z</time></trkpt><trkpt lat="46.5540826" lon="12.3859545"><ele>1007.0</ele><time>2026-04-20T17:10:38.877Z</time></trkpt><trkpt lat="46.5542024" lon="12.3860383"><ele>1007.0</ele><time>2026-04-20T17:10:39.876Z</time></trkpt><trkpt lat="46.5543174" lon="12.386121"><ele>1007.0</ele><time>2026-04-20T17:10:40.893Z</time></trkpt><trkpt lat="46.554425" lon="12.3862066"><ele>1007.0</ele><time>2026-04-20T17:10:41.876Z</time></trkpt><trkpt lat="46.5545233" lon="12.3862853"><ele>1007.0</ele><time>2026-04-20T17:10:42.876Z</time></trkpt><trkpt lat="46.5546086" lon="12.3863519"><ele>1007.0</ele><time>2026-04-20T17:10:43.877Z</time></trkpt><trkpt lat="46.5547023" lon="12.3863928"><ele>1007.0</ele><time>2026-04-20T17:10:44.877Z</time></trkpt><trkpt lat="46.5547936" lon="12.386423"><ele>1007.0</ele><time>2026-04-20T17:10:45.874Z</time></trkpt><trkpt lat="46.5548863" lon="12.3864623"><ele>1004.2</ele><time>2026-04-20T17:10:46.881Z</time></trkpt><trkpt lat="46.5549821" lon="12.386509"><ele>1001.4000000000001</ele><time>2026-04-20T17:10:47.876Z</time></trkpt><trkpt lat="46.5550801" lon="12.3865823"><ele>998.5999999999999</ele><time>2026-04-20T17:10:48.886Z</time></trkpt><trkpt lat="46.5551587" lon="12.386683"><ele>995.8</ele><time>2026-04-20T17:10:49.873Z</time></trkpt><trkpt lat="46.5552402" lon="12.3868226"><ele>993.0</ele><time>2026-04-20T17:10:50.875Z</time></trkpt><trkpt lat="46.5553171" lon="12.3869477"><ele>991.5</ele><time>2026-04-20T17:10:51.878Z</time></trkpt><trkpt lat="46.5553903" lon="12.3870741"><ele>990.0</ele><time>2026-04-20T17:10:52.871Z</time></trkpt><trkpt lat="46.5554711" lon="12.3872002"><ele>988.5</ele><time>2026-04-20T17:10:53.877Z</time></trkpt><trkpt lat="46.5555557" lon="12.3873285"><ele>987.0</ele><time>2026-04-20T17:10:54.879Z</time></trkpt><trkpt lat="46.5556417" lon="12.3874416"><ele>987.0</ele><time>2026-04-20T17:10:55.877Z</time></trkpt><trkpt lat="46.5557427" lon="12.3875547"><ele>987.0</ele><time>2026-04-20T17:10:56.888Z</time></trkpt><trkpt lat="46.5558563" lon="12.3876633"><ele>987.0</ele><time>2026-04-20T17:10:57.87Z</time></trkpt><trkpt lat="46.5559629" lon="12.3877703"><ele>987.0</ele><time>2026-04-20T17:10:58.886Z</time></trkpt><trkpt lat="46.5560594" lon="12.3878982"><ele>987.75</ele><time>2026-04-20T17:10:59.871Z</time></trkpt><trkpt lat="46.5561478" lon="12.3880284"><ele>988.5</ele><time>2026-04-20T17:11:00.879Z</time></trkpt><trkpt lat="46.5562335" lon="12.3881448"><ele>989.25</ele><time>2026-04-20T17:11:01.881Z</time></trkpt><trkpt lat="46.5563257" lon="12.3882579"><ele>990.0</ele><time>2026-04-20T17:11:02.869Z</time></trkpt><trkpt lat="46.5564344" lon="12.3883668"><ele>990.0</ele><time>2026-04-20T17:11:03.88Z</time></trkpt><trkpt lat="46.5565445" lon="12.3884837"><ele>990.0</ele><time>2026-04-20T17:11:04.873Z</time></trkpt><trkpt lat="46.5566532" lon="12.3886036"><ele>990.0</ele><time>2026-04-20T17:11:05.867Z</time></trkpt><trkpt lat="46.5567677" lon="12.3887257"><ele>990.0</ele><time>2026-04-20T17:11:06.876Z</time></trkpt><trkpt lat="46.5568777" lon="12.3888473"><ele>991.0</ele><time>2026-04-20T17:11:07.874Z</time></trkpt><trkpt lat="46.5569914" lon="12.3889564"><ele>992.0</ele><time>2026-04-20T17:11:08.871Z</time></trkpt><trkpt lat="46.557101" lon="12.3890607"><ele>993.0</ele><time>2026-04-20T17:11:09.881Z</time></trkpt><trkpt lat="46.5572072" lon="12.389149"><ele>994.0</ele><time>2026-04-20T17:11:10.872Z</time></trkpt><trkpt lat="46.5573055" lon="12.3892425"><ele>994.0</ele><time>2026-04-20T17:11:11.868Z</time></trkpt><trkpt lat="46.5574112" lon="12.3893513"><ele>994.0</ele><time>2026-04-20T17:11:12.872Z</time></trkpt><trkpt lat="46.5575156" lon="12.3894916"><ele>994.0</ele><time>2026-04-20T17:11:13.87Z</time></trkpt><trkpt lat="46.5576217" lon="12.3896294"><ele>994.0</ele><time>2026-04-20T17:11:14.879Z</time></trkpt><trkpt lat="46.5577245" lon="12.389768"><ele>994.75</ele><time>2026-04-20T17:11:15.888Z</time></trkpt><trkpt lat="46.5578121" lon="12.3899134"><ele>995.5</ele><time>2026-04-20T17:11:16.875Z</time></trkpt><trkpt lat="46.5578992" lon="12.3900471"><ele>996.25</ele><time>2026-04-20T17:11:17.875Z</time></trkpt><trkpt lat="46.557976" lon="12.3901764"><ele>997.0</ele><time>2026-04-20T17:11:18.877Z</time></trkpt><trkpt lat="46.5580317" lon="12.3903014"><ele>997.0</ele><time>2026-04-20T17:11:19.885Z</time></trkpt><trkpt lat="46.558078" lon="12.3904241"><ele>997.0</ele><time>2026-04-20T17:11:20.876Z</time></trkpt><trkpt lat="46.5581143" lon="12.3905609"><ele>997.0</ele><time>2026-04-20T17:11:21.886Z</time></trkpt><trkpt lat="46.5581316" lon="12.3907249"><ele>997.0</ele><time>2026-04-20T17:11:22.878Z</time></trkpt><trkpt lat="46.5581531" lon="12.3908908"><ele>997.0</ele><time>2026-04-20T17:11:23.878Z</time></trkpt><trkpt lat="46.5581756" lon="12.3910585"><ele>995.0</ele><time>2026-04-20T17:11:24.879Z</time></trkpt><trkpt lat="46.5581992" lon="12.3912108"><ele>993.0</ele><time>2026-04-20T17:11:25.87Z</time></trkpt><trkpt lat="46.5582094" lon="12.3913368"><ele>991.0</ele><time>2026-04-20T17:11:26.889Z</time></trkpt><trkpt lat="46.5582077" lon="12.391457"><ele>989.0</ele><time>2026-04-20T17:11:27.875Z</time></trkpt><trkpt lat="46.5582047" lon="12.3915534"><ele>987.0</ele><time>2026-04-20T17:11:28.879Z</time></trkpt><trkpt lat="46.5582579" lon="12.3917056"><ele>985.6666666666666</ele><time>2026-04-20T17:11:30.877Z</time></trkpt><trkpt lat="46.558325" lon="12.3917423"><ele>984.3333333333333</ele><time>2026-04-20T17:11:31.876Z</time></trkpt><trkpt lat="46.5583928" lon="12.391761"><ele>983.0</ele><time>2026-04-20T17:11:32.875Z</time></trkpt><trkpt lat="46.5584798" lon="12.3917609"><ele>981.6666666666666</ele><time>2026-04-20T17:11:33.88Z</time></trkpt><trkpt lat="46.5585686" lon="12.3917839"><ele>980.3333333333333</ele><time>2026-04-20T17:11:34.868Z</time></trkpt><trkpt lat="46.5586418" lon="12.3918108"><ele>979.0</ele><time>2026-04-20T17:11:35.893Z</time></trkpt><trkpt lat="46.5587205" lon="12.3918593"><ele>979.0</ele><time>2026-04-20T17:11:36.873Z</time></trkpt><trkpt lat="46.5587841" lon="12.3919367"><ele>979.0000000000001</ele><time>2026-04-20T17:11:37.876Z</time></trkpt><trkpt lat="46.5588547" lon="12.3920149"><ele>979.0000000000001</ele><time>2026-04-20T17:11:38.885Z</time></trkpt><trkpt lat="46.5589314" lon="12.3920813"><ele>979.0</ele><time>2026-04-20T17:11:39.87Z</time></trkpt><trkpt lat="46.5590211" lon="12.3921365"><ele>979.0</ele><time>2026-04-20T17:11:40.879Z</time></trkpt><trkpt lat="46.5591197" lon="12.392184"><ele>977.0</ele><time>2026-04-20T17:11:41.878Z</time></trkpt><trkpt lat="46.5592186" lon="12.392232"><ele>975.0000000000001</ele><time>2026-04-20T17:11:42.875Z</time></trkpt><trkpt lat="46.5593202" lon="12.3922943"><ele>973.0000000000001</ele><time>2026-04-20T17:11:43.872Z</time></trkpt><trkpt lat="46.5594305" lon="12.3923464"><ele>971.0</ele><time>2026-04-20T17:11:44.875Z</time></trkpt><trkpt lat="46.5595295" lon="12.3923846"><ele>969.0</ele><time>2026-04-20T17:11:45.877Z</time></trkpt><trkpt lat="46.5596392" lon="12.3924008"><ele>966.5</ele><time>2026-04-20T17:11:46.882Z</time></trkpt><trkpt lat="46.5597464" lon="12.392404"><ele>964.0</ele><time>2026-04-20T17:11:47.883Z</time></trkpt><trkpt lat="46.5598624" lon="12.392393"><ele>961.5</ele><time>2026-04-20T17:11:48.877Z</time></trkpt><trkpt lat="46.5599782" lon="12.3923801"><ele>959.0</ele><time>2026-04-20T17:11:49.892Z</time></trkpt><trkpt lat="46.560096" lon="12.3923574"><ele>959.0</ele><time>2026-04-20T17:11:50.873Z</time></trkpt><trkpt lat="46.5602224" lon="12.3923454"><ele>959.0</ele><time>2026-04-20T17:11:51.885Z</time></trkpt><trkpt lat="46.5603483" lon="12.3923428"><ele>959.0</ele><time>2026-04-20T17:11:52.878Z</time></trkpt><trkpt lat="46.5604613" lon="12.3923527"><ele>959.0</ele><time>2026-04-20T17:11:53.878Z</time></trkpt><trkpt lat="46.5605837" lon="12.3923516"><ele>957.5</ele><time>2026-04-20T17:11:54.871Z</time></trkpt><trkpt lat="46.56071" lon="12.3923508"><ele>956.0</ele><time>2026-04-20T17:11:55.875Z</time></trkpt><trkpt lat="46.5608268" lon="12.3923363"><ele>954.5</ele><time>2026-04-20T17:11:56.882Z</time></trkpt><trkpt lat="46.5609392" lon="12.3923273"><ele>953.0</ele><time>2026-04-20T17:11:57.878Z</time></trkpt><trkpt lat="46.5610357" lon="12.3923212"><ele>953.0000000000001</ele><time>2026-04-20T17:11:58.895Z</time></trkpt><trkpt lat="46.5611154" lon="12.3923129"><ele>953.0</ele><time>2026-04-20T17:11:59.871Z</time></trkpt><trkpt lat="46.5611823" lon="12.392333"><ele>953.0</ele><time>2026-04-20T17:12:00.883Z</time></trkpt><trkpt lat="46.5612554" lon="12.3923728"><ele>953.0</ele><time>2026-04-20T17:12:01.875Z</time></trkpt><trkpt lat="46.5613246" lon="12.3924388"><ele>953.0000000000001</ele><time>2026-04-20T17:12:02.878Z</time></trkpt><trkpt lat="46.5613829" lon="12.3925433"><ele>953.0</ele><time>2026-04-20T17:12:03.873Z</time></trkpt><trkpt lat="46.5614426" lon="12.3926638"><ele>952.0</ele><time>2026-04-20T17:12:04.874Z</time></trkpt><trkpt lat="46.5614896" lon="12.392797"><ele>951.0</ele><time>2026-04-20T17:12:05.873Z</time></trkpt><trkpt lat="46.5615245" lon="12.3929375"><ele>950.0</ele><time>2026-04-20T17:12:06.873Z</time></trkpt><trkpt lat="46.561565" lon="12.3930729"><ele>949.0</ele><time>2026-04-20T17:12:07.89Z</time></trkpt><trkpt lat="46.5615998" lon="12.3932022"><ele>948.0</ele><time>2026-04-20T17:12:08.874Z</time></trkpt><trkpt lat="46.5616399" lon="12.3933302"><ele>948.0</ele><time>2026-04-20T17:12:09.88Z</time></trkpt><trkpt lat="46.561694" lon="12.3934369"><ele>948.0</ele><time>2026-04-20T17:12:10.877Z</time></trkpt><trkpt lat="46.5617542" lon="12.393552"><ele>948.0</ele><time>2026-04-20T17:12:11.883Z</time></trkpt><trkpt lat="46.5618243" lon="12.3936597"><ele>948.0</ele><time>2026-04-20T17:12:12.867Z</time></trkpt><trkpt lat="46.5618931" lon="12.3937575"><ele>948.0</ele><time>2026-04-20T17:12:13.881Z</time></trkpt><trkpt lat="46.5619569" lon="12.3938335"><ele>946.2</ele><time>2026-04-20T17:12:14.878Z</time></trkpt><trkpt lat="46.5620367" lon="12.393894"><ele>944.4</ele><time>2026-04-20T17:12:15.871Z</time></trkpt><trkpt lat="46.5621427" lon="12.3939639"><ele>942.6000000000001</ele><time>2026-04-20T17:12:16.877Z</time></trkpt><trkpt lat="46.5622369" lon="12.3940193"><ele>940.8000000000001</ele><time>2026-04-20T17:12:17.871Z</time></trkpt><trkpt lat="46.5623353" lon="12.394099"><ele>939.0</ele><time>2026-04-20T17:12:18.877Z</time></trkpt><trkpt lat="46.5624352" lon="12.394184"><ele>939.0</ele><time>2026-04-20T17:12:19.876Z</time></trkpt><trkpt lat="46.5625346" lon="12.3942595"><ele>939.0000000000001</ele><time>2026-04-20T17:12:20.873Z</time></trkpt><trkpt lat="46.5626262" lon="12.3943262"><ele>939.0000000000001</ele><time>2026-04-20T17:12:21.877Z</time></trkpt><trkpt lat="46.5627205" lon="12.3943911"><ele>939.0</ele><time>2026-04-20T17:12:22.874Z</time></trkpt><trkpt lat="46.5628203" lon="12.3944366"><ele>939.0</ele><time>2026-04-20T17:12:23.886Z</time></trkpt><trkpt lat="46.5629185" lon="12.3944656"><ele>940.75</ele><time>2026-04-20T17:12:24.879Z</time></trkpt><trkpt lat="46.5630224" lon="12.3944721"><ele>942.5</ele><time>2026-04-20T17:12:25.87Z</time></trkpt><trkpt lat="46.5631311" lon="12.3944579"><ele>944.25</ele><time>2026-04-20T17:12:26.875Z</time></trkpt><trkpt lat="46.5632496" lon="12.3944458"><ele>946.0</ele><time>2026-04-20T17:12:27.872Z</time></trkpt><trkpt lat="46.5633728" lon="12.3944394"><ele>946.0</ele><time>2026-04-20T17:12:28.892Z</time></trkpt><trkpt lat="46.5634992" lon="12.3944338"><ele>946.0</ele><time>2026-04-20T17:12:29.874Z</time></trkpt><trkpt lat="46.563616" lon="12.3944242"><ele>946.0</ele><time>2026-04-20T17:12:30.883Z</time></trkpt><trkpt lat="46.5637231" lon="12.3944292"><ele>946.0</ele><time>2026-04-20T17:12:31.867Z</time></trkpt><trkpt lat="46.5638198" lon="12.3944627"><ele>948.0</ele><time>2026-04-20T17:12:32.874Z</time></trkpt><trkpt lat="46.5639155" lon="12.3945166"><ele>950.0</ele><time>2026-04-20T17:12:33.878Z</time></trkpt><trkpt lat="46.5640195" lon="12.3945931"><ele>952.0</ele><time>2026-04-20T17:12:34.879Z</time></trkpt><trkpt lat="46.5641231" lon="12.3947006"><ele>954.0</ele><time>2026-04-20T17:12:35.877Z</time></trkpt><trkpt lat="46.5642266" lon="12.3948221"><ele>948.5</ele><time>2026-04-20T17:12:36.871Z</time></trkpt><trkpt lat="46.5643389" lon="12.3949398"><ele>943.0</ele><time>2026-04-20T17:12:37.876Z</time></trkpt><trkpt lat="46.5644698" lon="12.3950613"><ele>937.5</ele><time>2026-04-20T17:12:38.879Z</time></trkpt><trkpt lat="46.5646051" lon="12.3951683"><ele>932.0</ele><time>2026-04-20T17:12:39.871Z</time></trkpt><trkpt lat="46.5647452" lon="12.3952991"><ele>932.0</ele><time>2026-04-20T17:12:40.876Z</time></trkpt><trkpt lat="46.5648715" lon="12.3953908"><ele>932.0</ele><time>2026-04-20T17:12:41.887Z</time></trkpt><trkpt lat="46.5649944" lon="12.3954804"><ele>932.0</ele><time>2026-04-20T17:12:42.878Z</time></trkpt><trkpt lat="46.5651069" lon="12.3955765"><ele>932.0</ele><time>2026-04-20T17:12:43.875Z</time></trkpt><trkpt lat="46.5652262" lon="12.395686"><ele>932.5</ele><time>2026-04-20T17:12:44.876Z</time></trkpt><trkpt lat="46.5653361" lon="12.3958027"><ele>933.0</ele><time>2026-04-20T17:12:45.874Z</time></trkpt><trkpt lat="46.5654395" lon="12.3959383"><ele>933.5</ele><time>2026-04-20T17:12:46.895Z</time></trkpt><trkpt lat="46.5655407" lon="12.3960733"><ele>934.0</ele><time>2026-04-20T17:12:47.891Z</time></trkpt><trkpt lat="46.5656298" lon="12.3962136"><ele>928.0</ele><time>2026-04-20T17:12:48.878Z</time></trkpt><trkpt lat="46.5657113" lon="12.3963534"><ele>922.0</ele><time>2026-04-20T17:12:49.88Z</time></trkpt><trkpt lat="46.5657875" lon="12.3965021"><ele>916.0</ele><time>2026-04-20T17:12:50.875Z</time></trkpt><trkpt lat="46.5658571" lon="12.3966596"><ele>910.0</ele><time>2026-04-20T17:12:51.876Z</time></trkpt><trkpt lat="46.5659213" lon="12.3968186"><ele>910.0</ele><time>2026-04-20T17:12:52.878Z</time></trkpt><trkpt lat="46.5659823" lon="12.3969801"><ele>910.0</ele><time>2026-04-20T17:12:53.873Z</time></trkpt><trkpt lat="46.5660432" lon="12.3971463"><ele>910.0</ele><time>2026-04-20T17:12:54.894Z</time></trkpt><trkpt lat="46.5661052" lon="12.3973112"><ele>910.0</ele><time>2026-04-20T17:12:55.876Z</time></trkpt><trkpt lat="46.5661655" lon="12.3974799"><ele>909.5</ele><time>2026-04-20T17:12:56.881Z</time></trkpt><trkpt lat="46.5662334" lon="12.39764"><ele>909.0</ele><time>2026-04-20T17:12:57.884Z</time></trkpt><trkpt lat="46.5662995" lon="12.3978076"><ele>908.5</ele><time>2026-04-20T17:12:58.877Z</time></trkpt><trkpt lat="46.5663723" lon="12.3979818"><ele>908.0</ele><time>2026-04-20T17:12:59.894Z</time></trkpt><trkpt lat="46.5664465" lon="12.3981592"><ele>908.0</ele><time>2026-04-20T17:13:00.874Z</time></trkpt><trkpt lat="46.5665228" lon="12.3983331"><ele>908.0</ele><time>2026-04-20T17:13:01.884Z</time></trkpt><trkpt lat="46.566594" lon="12.3984955"><ele>908.0</ele><time>2026-04-20T17:13:02.878Z</time></trkpt><trkpt lat="46.5666523" lon="12.3986527"><ele>908.0</ele><time>2026-04-20T17:13:03.881Z</time></trkpt><trkpt lat="46.566716" lon="12.3988081"><ele>904.25</ele><time>2026-04-20T17:13:04.882Z</time></trkpt><trkpt lat="46.5667869" lon="12.3989722"><ele>900.5</ele><time>2026-04-20T17:13:05.877Z</time></trkpt><trkpt lat="46.5668626" lon="12.3991445"><ele>896.75</ele><time>2026-04-20T17:13:06.89Z</time></trkpt><trkpt lat="46.5669491" lon="12.3993081"><ele>893.0</ele><time>2026-04-20T17:13:07.881Z</time></trkpt><trkpt lat="46.567059" lon="12.3994709"><ele>892.6666666666667</ele><time>2026-04-20T17:13:08.871Z</time></trkpt><trkpt lat="46.5671827" lon="12.3996228"><ele>892.3333333333333</ele><time>2026-04-20T17:13:09.872Z</time></trkpt><trkpt lat="46.5673213" lon="12.3997789"><ele>892.0</ele><time>2026-04-20T17:13:10.872Z</time></trkpt><trkpt lat="46.5674655" lon="12.399949"><ele>890.3333333333333</ele><time>2026-04-20T17:13:11.881Z</time></trkpt><trkpt lat="46.5675973" lon="12.4001096"><ele>888.6666666666667</ele><time>2026-04-20T17:13:12.875Z</time></trkpt><trkpt lat="46.567717" lon="12.4002608"><ele>887.0</ele><time>2026-04-20T17:13:13.889Z</time></trkpt><trkpt lat="46.5678238" lon="12.4003867"><ele>888.75</ele><time>2026-04-20T17:13:14.876Z</time></trkpt><trkpt lat="46.5679249" lon="12.4005096"><ele>890.5</ele><time>2026-04-20T17:13:15.881Z</time></trkpt><trkpt lat="46.5680159" lon="12.4006144"><ele>892.25</ele><time>2026-04-20T17:13:16.877Z</time></trkpt><trkpt lat="46.5680993" lon="12.4007034"><ele>894.0</ele><time>2026-04-20T17:13:17.877Z</time></trkpt><trkpt lat="46.5681773" lon="12.4007962"><ele>894.0</ele><time>2026-04-20T17:13:18.868Z</time></trkpt><trkpt lat="46.5682483" lon="12.4008744"><ele>894.0</ele><time>2026-04-20T17:13:19.877Z</time></trkpt><trkpt lat="46.5683068" lon="12.4009467"><ele>894.0</ele><time>2026-04-20T17:13:20.876Z</time></trkpt><trkpt lat="46.5683589" lon="12.4010211"><ele>894.0</ele><time>2026-04-20T17:13:21.879Z</time></trkpt><trkpt lat="46.5684076" lon="12.4011177"><ele>894.0</ele><time>2026-04-20T17:13:22.87Z</time></trkpt><trkpt lat="46.5684401" lon="12.4012372"><ele>894.0</ele><time>2026-04-20T17:13:23.889Z</time></trkpt><trkpt lat="46.5684358" lon="12.4013686"><ele>894.8000000000001</ele><time>2026-04-20T17:13:24.879Z</time></trkpt><trkpt lat="46.5684123" lon="12.4015068"><ele>895.6000000000001</ele><time>2026-04-20T17:13:25.874Z</time></trkpt><trkpt lat="46.5683723" lon="12.4016449"><ele>896.4</ele><time>2026-04-20T17:13:26.865Z</time></trkpt><trkpt lat="46.5683395" lon="12.4017672"><ele>897.2</ele><time>2026-04-20T17:13:27.881Z</time></trkpt><trkpt lat="46.5683255" lon="12.4018686"><ele>898.0</ele><time>2026-04-20T17:13:28.88Z</time></trkpt><trkpt lat="46.5682934" lon="12.401998"><ele>898.0</ele><time>2026-04-20T17:13:30.882Z</time></trkpt><trkpt lat="46.5683884" lon="12.4019932"><ele>898.0</ele><time>2026-04-20T17:13:35.889Z</time></trkpt><trkpt lat="46.568433" lon="12.4018975"><ele>898.0</ele><time>2026-04-20T17:13:36.876Z</time></trkpt><trkpt lat="46.5684743" lon="12.4017862"><ele>898.0</ele><time>2026-04-20T17:13:37.879Z</time></trkpt><trkpt lat="46.5685216" lon="12.4016773"><ele>898.0</ele><time>2026-04-20T17:13:38.879Z</time></trkpt><trkpt lat="46.5685863" lon="12.4015536"><ele>898.0</ele><time>2026-04-20T17:13:39.875Z</time></trkpt><trkpt lat="46.5686657" lon="12.4014174"><ele>898.0</ele><time>2026-04-20T17:13:40.872Z</time></trkpt><trkpt lat="46.5687638" lon="12.4012581"><ele>898.0</ele><time>2026-04-20T17:13:41.875Z</time></trkpt><trkpt lat="46.5688734" lon="12.4011029"><ele>898.0</ele><time>2026-04-20T17:13:42.875Z</time></trkpt><trkpt lat="46.5689926" lon="12.4009484"><ele>899.0</ele><time>2026-04-20T17:13:43.879Z</time></trkpt><trkpt lat="46.5691289" lon="12.4007828"><ele>900.0</ele><time>2026-04-20T17:13:44.875Z</time></trkpt><trkpt lat="46.5692742" lon="12.4006273"><ele>901.0</ele><time>2026-04-20T17:13:45.884Z</time></trkpt><trkpt lat="46.5694208" lon="12.4004663"><ele>901.6666666666666</ele><time>2026-04-20T17:13:46.881Z</time></trkpt><trkpt lat="46.569592" lon="12.4003015"><ele>902.3333333333333</ele><time>2026-04-20T17:13:47.873Z</time></trkpt><trkpt lat="46.5697735" lon="12.4001376"><ele>903.0</ele><time>2026-04-20T17:13:48.887Z</time></trkpt><trkpt lat="46.5699559" lon="12.3999632"><ele>903.0</ele><time>2026-04-20T17:13:49.875Z</time></trkpt><trkpt lat="46.5701416" lon="12.3997814"><ele>903.0</ele><time>2026-04-20T17:13:50.874Z</time></trkpt><trkpt lat="46.5703306" lon="12.3995947"><ele>901.0</ele><time>2026-04-20T17:13:51.878Z</time></trkpt><trkpt lat="46.5705107" lon="12.3993814"><ele>899.0</ele><time>2026-04-20T17:13:52.883Z</time></trkpt><trkpt lat="46.5706985" lon="12.3991443"><ele>899.0</ele><time>2026-04-20T17:13:53.882Z</time></trkpt><trkpt lat="46.570873" lon="12.3988906"><ele>899.0</ele><time>2026-04-20T17:13:54.886Z</time></trkpt><trkpt lat="46.571047" lon="12.3986334"><ele>900.5</ele><time>2026-04-20T17:13:55.875Z</time></trkpt><trkpt lat="46.5712234" lon="12.3983746"><ele>902.0</ele><time>2026-04-20T17:13:56.879Z</time></trkpt><trkpt lat="46.5713991" lon="12.3981135"><ele>900.0</ele><time>2026-04-20T17:13:57.873Z</time></trkpt><trkpt lat="46.5715672" lon="12.3978655"><ele>898.0</ele><time>2026-04-20T17:13:58.875Z</time></trkpt><trkpt lat="46.5717223" lon="12.397622"><ele>898.0</ele><time>2026-04-20T17:13:59.887Z</time></trkpt><trkpt lat="46.571878" lon="12.3973736"><ele>898.0</ele><time>2026-04-20T17:14:00.875Z</time></trkpt><trkpt lat="46.5720305" lon="12.3971133"><ele>902.5</ele><time>2026-04-20T17:14:01.875Z</time></trkpt><trkpt lat="46.5721847" lon="12.3968371"><ele>907.0</ele><time>2026-04-20T17:14:02.882Z</time></trkpt><trkpt lat="46.5723361" lon="12.3965541"><ele>903.5</ele><time>2026-04-20T17:14:03.883Z</time></trkpt><trkpt lat="46.5724925" lon="12.3962642"><ele>900.0</ele><time>2026-04-20T17:14:04.871Z</time></trkpt><trkpt lat="46.572643" lon="12.3959582"><ele>900.0</ele><time>2026-04-20T17:14:05.889Z</time></trkpt><trkpt lat="46.5727982" lon="12.3956459"><ele>900.0</ele><time>2026-04-20T17:14:06.876Z</time></trkpt><trkpt lat="46.5729494" lon="12.3953302"><ele>904.0</ele><time>2026-04-20T17:14:07.875Z</time></trkpt><trkpt lat="46.5731081" lon="12.3950117"><ele>908.0</ele><time>2026-04-20T17:14:08.886Z</time></trkpt><trkpt lat="46.5732669" lon="12.3946956"><ele>905.5</ele><time>2026-04-20T17:14:09.87Z</time></trkpt><trkpt lat="46.5734245" lon="12.3943848"><ele>903.0</ele><time>2026-04-20T17:14:10.884Z</time></trkpt><trkpt lat="46.5735855" lon="12.3940719"><ele>906.0</ele><time>2026-04-20T17:14:11.883Z</time></trkpt><trkpt lat="46.5737436" lon="12.3937595"><ele>909.0</ele><time>2026-04-20T17:14:12.872Z</time></trkpt><trkpt lat="46.5738998" lon="12.3934563"><ele>909.0</ele><time>2026-04-20T17:14:13.892Z</time></trkpt><trkpt lat="46.5740429" lon="12.3931841"><ele>909.0</ele><time>2026-04-20T17:14:14.872Z</time></trkpt><trkpt lat="46.574172" lon="12.3929284"><ele>907.6666666666667</ele><time>2026-04-20T17:14:15.89Z</time></trkpt><trkpt lat="46.5742909" lon="12.392693"><ele>906.3333333333334</ele><time>2026-04-20T17:14:16.878Z</time></trkpt><trkpt lat="46.5744081" lon="12.3924621"><ele>905.0</ele><time>2026-04-20T17:14:17.88Z</time></trkpt><trkpt lat="46.5745318" lon="12.3922284"><ele>909.0</ele><time>2026-04-20T17:14:18.872Z</time></trkpt><trkpt lat="46.5746597" lon="12.3919849"><ele>913.0</ele><time>2026-04-20T17:14:19.876Z</time></trkpt><trkpt lat="46.5747826" lon="12.3917452"><ele>917.0</ele><time>2026-04-20T17:14:20.878Z</time></trkpt><trkpt lat="46.5749007" lon="12.3915281"><ele>915.0</ele><time>2026-04-20T17:14:21.875Z</time></trkpt><trkpt lat="46.574999" lon="12.3913254"><ele>913.0</ele><time>2026-04-20T17:14:22.877Z</time></trkpt><trkpt lat="46.5750823" lon="12.3911345"><ele>911.0</ele><time>2026-04-20T17:14:23.882Z</time></trkpt><trkpt lat="46.5751578" lon="12.3909365"><ele>911.0</ele><time>2026-04-20T17:14:24.877Z</time></trkpt><trkpt lat="46.5752146" lon="12.3907074"><ele>911.0</ele><time>2026-04-20T17:14:25.875Z</time></trkpt><trkpt lat="46.5752591" lon="12.390466"><ele>911.0</ele><time>2026-04-20T17:14:26.872Z</time></trkpt><trkpt lat="46.5752789" lon="12.3902056"><ele>911.0</ele><time>2026-04-20T17:14:27.884Z</time></trkpt><trkpt lat="46.5752893" lon="12.3899342"><ele>911.0</ele><time>2026-04-20T17:14:28.875Z</time></trkpt><trkpt lat="46.575286" lon="12.389642"><ele>911.0</ele><time>2026-04-20T17:14:29.883Z</time></trkpt><trkpt lat="46.5752819" lon="12.3893516"><ele>913.3333333333334</ele><time>2026-04-20T17:14:30.876Z</time></trkpt><trkpt lat="46.5752786" lon="12.3890704"><ele>915.6666666666667</ele><time>2026-04-20T17:14:31.874Z</time></trkpt><trkpt lat="46.5752754" lon="12.3887881"><ele>918.0</ele><time>2026-04-20T17:14:32.873Z</time></trkpt><trkpt lat="46.5752788" lon="12.3885392"><ele>918.0</ele><time>2026-04-20T17:14:33.877Z</time></trkpt><trkpt lat="46.5752787" lon="12.3883049"><ele>918.0</ele><time>2026-04-20T17:14:34.88Z</time></trkpt><trkpt lat="46.5752939" lon="12.3880568"><ele>918.0</ele><time>2026-04-20T17:14:35.874Z</time></trkpt><trkpt lat="46.5753186" lon="12.3878346"><ele>918.75</ele><time>2026-04-20T17:14:36.877Z</time></trkpt><trkpt lat="46.575347" lon="12.3876383"><ele>919.5</ele><time>2026-04-20T17:14:37.879Z</time></trkpt><trkpt lat="46.5753968" lon="12.3874571"><ele>920.25</ele><time>2026-04-20T17:14:38.876Z</time></trkpt><trkpt lat="46.5754595" lon="12.3872792"><ele>921.0</ele><time>2026-04-20T17:14:39.885Z</time></trkpt><trkpt lat="46.5755372" lon="12.3871057"><ele>921.5</ele><time>2026-04-20T17:14:40.869Z</time></trkpt><trkpt lat="46.5756227" lon="12.3869529"><ele>922.0</ele><time>2026-04-20T17:14:41.879Z</time></trkpt><trkpt lat="46.5757004" lon="12.3868278"><ele>922.5</ele><time>2026-04-20T17:14:42.872Z</time></trkpt><trkpt lat="46.5757739" lon="12.3867212"><ele>923.0</ele><time>2026-04-20T17:14:43.877Z</time></trkpt><trkpt lat="46.5758474" lon="12.3866305"><ele>923.0</ele><time>2026-04-20T17:14:44.876Z</time></trkpt><trkpt lat="46.5759079" lon="12.386568"><ele>923.0</ele><time>2026-04-20T17:14:45.876Z</time></trkpt><trkpt lat="46.5760008" lon="12.3865141"><ele>923.0</ele><time>2026-04-20T17:14:47.884Z</time></trkpt><trkpt lat="46.5760978" lon="12.3865696"><ele>923.0</ele><time>2026-04-20T17:14:49.879Z</time></trkpt><trkpt lat="46.5761594" lon="12.386641"><ele>923.0</ele><time>2026-04-20T17:14:50.871Z</time></trkpt><trkpt lat="46.5762388" lon="12.3867213"><ele>925.25</ele><time>2026-04-20T17:14:51.872Z</time></trkpt><trkpt lat="46.5763262" lon="12.3868075"><ele>927.5</ele><time>2026-04-20T17:14:52.879Z</time></trkpt><trkpt lat="46.5764259" lon="12.3868865"><ele>929.75</ele><time>2026-04-20T17:14:53.873Z</time></trkpt><trkpt lat="46.5765406" lon="12.3869778"><ele>932.0</ele><time>2026-04-20T17:14:54.884Z</time></trkpt><trkpt lat="46.5766564" lon="12.3870786"><ele>932.0</ele><time>2026-04-20T17:14:55.875Z</time></trkpt><trkpt lat="46.5767671" lon="12.3871697"><ele>932.0</ele><time>2026-04-20T17:14:56.869Z</time></trkpt><trkpt lat="46.5768617" lon="12.3872492"><ele>932.0</ele><time>2026-04-20T17:14:57.879Z</time></trkpt><trkpt lat="46.5769372" lon="12.3873152"><ele>932.0</ele><time>2026-04-20T17:14:58.867Z</time></trkpt><trkpt lat="46.5769954" lon="12.387409"><ele>932.0</ele><time>2026-04-20T17:15:00.878Z</time></trkpt><trkpt lat="46.5769367" lon="12.3875093"><ele>935.0</ele><time>2026-04-20T17:15:03.876Z</time></trkpt><trkpt lat="46.5768773" lon="12.3875642"><ele>935.0</ele><time>2026-04-20T17:15:07.872Z</time></trkpt></trkseg></trk></gpx>